Time,TemperatureF,DewpointF,PressureIn,WindDirection,WindDirectionDegrees,WindSpeedMPH,WindSpeedGustMPH,Humidity,HourlyPrecipIn,Conditions,Clouds,dailyrainin,SolarRadiationWatts/m^2,SoftwareType,DateUTC
2013-03-22 00:00:00,30.0,19.3,30.14,WNW,300,6.9,6.9,64,0.00,CLR,,0.00,0.0,WeatherDisplay:10.37,2013-03-22 07:00:00,
2013-03-22 00:01:00,29.9,19.2,30.14,WNW,293,7.0,7.0,64,0.00,CLR,,0.00,0.0,WeatherDisplay:10.37,2013-03-22 07:01:00,
2013-03-22 00:02:00,29.8,19.1,30.14,WNW,290,6.9,6.9,64,0.00,CLR,,0.00,0.0,WeatherDisplay:10.37,2013-03-22 07:02:00,
2013-03-22 00:04:00,29.8,19.1,30.14,West,267,11.5,11.5,64,0.00,CLR,,0.00,0.0,WeatherDisplay:10.37,2013-03-22 07:04:00,
2013-03-22 00:05:00,29.8,19.1,30.14,WSW,246,11.5,11.5,64,0.00,CLR,,0.00,0.0,WeatherDisplay:10.37,2013-03-22 07:05:00,
2013-03-22 00:07:00,29.8,19.1,30.14,NW,306,11.5,11.5,64,0.00,CLR,,0.00,0.0,WeatherDisplay:10.37,2013-03-22 07:07:00,
2013-03-22 00:08:00,29.8,19.1,30.14,WNW,285,11.5,11.5,64,0.00,CLR,,0.00,0.0,WeatherDisplay:10.37,2013-03-22 07:08:00,
2013-03-22 00:09:00,29.7,19.4,30.14,WNW,288,10.4,10.4,65,0.00,CLR,,0.00,0.0,WeatherDisplay:10.37,2013-03-22 07:09:00,
2013-03-22 00:10:00,29.7,19.4,30.14,WNW,290,10.4,10.4,65,0.00,CLR,,0.00,0.0,WeatherDisplay:10.37,2013-03-22 07:10:00,
2013-03-22 00:12:00,29.6,19.3,30.14,WNW,285,9.2,9.2,65,0.00,CLR,,0.00,0.0,WeatherDisplay:10.37,2013-03-22 07:12:00,
2013-03-22 00:13:00,29.6,19.3,30.14,West,264,5.8,5.8,65,0.00,CLR,,0.00,0.0,WeatherDisplay:10.37,2013-03-22 07:13:00,
2013-03-22 00:16:00,29.5,19.5,30.14,West,275,6.9,6.9,66,0.00,CLR,,0.00,0.0,WeatherDisplay:10.37,2013-03-22 07:16:00,
2013-03-22 00:17:00,29.5,19.5,30.14,West,261,8.1,8.1,66,0.00,CLR,,0.00,0.0,WeatherDisplay:10.37,2013-03-22 07:17:00,
2013-03-22 00:18:00,29.5,19.5,30.14,West,278,3.5,3.5,66,0.00,CLR,,0.00,0.0,WeatherDisplay:10.37,2013-03-22 07:18:00,
2013-03-22 00:22:00,29.5,19.5,30.14,West,280,6.9,6.9,66,0.00,CLR,,0.00,0.0,WeatherDisplay:10.37,2013-03-22 07:22:00,
2013-03-22 00:23:00,29.5,19.5,30.14,West,262,6.9,6.9,66,0.00,CLR,,0.00,0.0,WeatherDisplay:10.37,2013-03-22 07:23:00,
2013-03-22 00:24:00,29.5,19.5,30.14,WNW,288,4.0,4.0,66,0.00,CLR,,0.00,0.0,WeatherDisplay:10.37,2013-03-22 07:24:00,
2013-03-22 00:28:00,29.6,19.6,30.14,West,271,3.5,3.5,66,0.00,CLR,,0.00,0.0,WeatherDisplay:10.37,2013-03-22 07:28:00,
2013-03-22 00:30:00,29.6,19.6,30.14,West,266,6.0,6.0,66,0.00,CLR,,0.00,0.0,WeatherDisplay:10.37,2013-03-22 07:30:00,
2013-03-22 00:33:00,29.7,19.7,30.14,West,269,5.0,5.0,66,0.00,CLR,,0.00,0.0,WeatherDisplay:10.37,2013-03-22 07:33:00,
2013-03-22 00:34:00,29.7,19.7,30.14,NW,319,8.1,8.1,66,0.00,CLR,,0.00,0.0,WeatherDisplay:10.37,2013-03-22 07:34:00,
2013-03-22 00:35:00,29.7,19.7,30.14,WNW,291,8.1,8.1,66,0.00,CLR,,0.00,0.0,WeatherDisplay:10.37,2013-03-22 07:35:00,
2013-03-22 00:38:00,29.7,19.7,30.14,West,269,11.5,11.5,66,0.00,CLR,,0.00,0.0,WeatherDisplay:10.37,2013-03-22 07:38:00,
2013-03-22 00:40:00,29.7,20.4,30.14,West,269,10.4,10.4,68,0.00,CLR,,0.00,0.0,WeatherDisplay:10.37,2013-03-22 07:40:00,
2013-03-22 00:43:00,29.5,21.3,30.14,West,268,9.2,9.2,71,0.00,CLR,,0.00,0.0,WeatherDisplay:10.37,2013-03-22 07:43:00,
2013-03-22 00:44:00,29.4,21.2,30.14,West,274,10.4,10.4,71,0.00,CLR,,0.00,0.0,WeatherDisplay:10.37,2013-03-22 07:44:00,
2013-03-22 00:45:00,29.4,21.5,30.14,WNW,291,11.5,11.5,72,0.00,CLR,,0.00,0.0,WeatherDisplay:10.37,2013-03-22 07:45:00,
2013-03-22 00:46:00,29.3,21.4,30.14,West,272,11.5,11.5,72,0.00,CLR,,0.00,0.0,WeatherDisplay:10.37,2013-03-22 07:46:00,
2013-03-22 00:48:00,29.2,21.6,30.15,West,279,9.2,9.2,73,0.00,CLR,,0.00,0.0,WeatherDisplay:10.37,2013-03-22 07:48:00,
2013-03-22 00:50:00,29.2,21.6,30.14,West,279,6.9,6.9,73,0.00,CLR,,0.00,0.0,WeatherDisplay:10.37,2013-03-22 07:50:00,
2013-03-22 00:52:00,29.2,21.6,30.14,West,279,6.0,6.0,73,0.00,CLR,,0.00,0.0,WeatherDisplay:10.37,2013-03-22 07:52:00,
2013-03-22 00:54:00,29.1,21.8,30.14,WNW,284,5.8,5.8,74,0.00,CLR,,0.00,0.0,WeatherDisplay:10.37,2013-03-22 07:54:00,
2013-03-22 00:55:00,29.0,21.7,30.14,WNW,292,8.1,8.1,74,0.00,CLR,,0.00,0.0,WeatherDisplay:10.37,2013-03-22 07:55:00,
2013-03-22 00:57:00,28.9,21.7,30.14,WNW,293,8.1,8.1,74,0.00,CLR,,0.00,0.0,WeatherDisplay:10.37,2013-03-22 07:57:00,
2013-03-22 00:59:00,28.9,21.7,30.14,WNW,302,6.9,6.9,74,0.00,CLR,,0.00,0.0,WeatherDisplay:10.37,2013-03-22 07:59:00,
2013-03-22 01:00:00,28.8,21.6,30.14,WNW,284,9.2,9.2,74,0.00,CLR,,0.00,0.0,WeatherDisplay:10.37,2013-03-22 08:00:00,
2013-03-22 01:02:00,28.8,21.6,30.14,WNW,290,5.8,5.8,74,0.00,CLR,,0.00,0.0,WeatherDisplay:10.37,2013-03-22 08:02:00,
2013-03-22 01:04:00,28.7,21.5,30.14,WNW,296,4.6,4.6,74,0.00,,,0.00,0.0,WeatherDisplay:10.37,2013-03-22 08:04:00,
2013-03-22 01:06:00,28.6,21.4,30.14,NW,308,4.6,4.6,74,0.00,,,0.00,0.0,WeatherDisplay:10.37,2013-03-22 08:06:00,
2013-03-22 01:07:00,28.5,21.3,30.14,WNW,290,3.5,3.5,74,0.00,,,0.00,0.0,WeatherDisplay:10.37,2013-03-22 08:07:00,
2013-03-22 01:09:00,28.4,21.5,30.14,WNW,289,4.0,4.0,75,0.00,,,0.00,0.0,WeatherDisplay:10.37,2013-03-22 08:09:00,
2013-03-22 01:12:00,28.4,21.5,30.14,West,267,7.0,7.0,75,0.00,,,0.00,0.0,WeatherDisplay:10.37,2013-03-22 08:12:00,
2013-03-22 01:13:00,28.4,21.5,30.14,WNW,285,6.9,6.9,75,0.00,,,0.00,0.0,WeatherDisplay:10.37,2013-03-22 08:13:00,
2013-03-22 01:14:00,28.4,21.5,30.14,WNW,283,4.0,4.0,75,0.00,,,0.00,0.0,WeatherDisplay:10.37,2013-03-22 08:14:00,
2013-03-22 01:17:00,28.4,21.2,30.13,West,273,6.9,6.9,74,0.00,,,0.00,0.0,WeatherDisplay:10.37,2013-03-22 08:17:00,
2013-03-22 01:18:00,28.5,21.3,30.13,West,273,5.0,5.0,74,0.00,,,0.00,0.0,WeatherDisplay:10.37,2013-03-22 08:18:00,
2013-03-22 01:19:00,28.5,21.3,30.14,West,262,6.9,6.9,74,0.00,,,0.00,0.0,WeatherDisplay:10.37,2013-03-22 08:19:00,
2013-03-22 01:22:00,28.4,21.5,30.14,West,266,4.6,4.6,75,0.00,,,0.00,0.0,WeatherDisplay:10.37,2013-03-22 08:22:00,
2013-03-22 01:23:00,28.4,21.5,30.14,WNW,282,5.8,5.8,75,0.00,,,0.00,0.0,WeatherDisplay:10.37,2013-03-22 08:23:00,
2013-03-22 01:24:00,28.4,21.5,30.14,WNW,284,4.6,4.6,75,0.00,,,0.00,0.0,WeatherDisplay:10.37,2013-03-22 08:24:00,
2013-03-22 01:27:00,28.3,21.4,30.14,WNW,294,5.0,5.0,75,0.00,,,0.00,0.0,WeatherDisplay:10.37,2013-03-22 08:27:00,
2013-03-22 01:28:00,28.3,21.4,30.13,WNW,285,8.0,8.0,75,0.00,,,0.00,0.0,WeatherDisplay:10.37,2013-03-22 08:28:00,
2013-03-22 01:29:00,28.3,21.4,30.13,WNW,292,5.8,5.8,75,0.00,,,0.00,0.0,WeatherDisplay:10.37,2013-03-22 08:29:00,
2013-03-22 01:32:00,28.2,21.6,30.14,WSW,257,6.9,6.9,76,0.00,,,0.00,0.0,WeatherDisplay:10.37,2013-03-22 08:32:00,
2013-03-22 01:34:00,28.2,21.6,30.14,West,266,4.6,4.6,76,0.00,,,0.00,0.0,WeatherDisplay:10.37,2013-03-22 08:34:00,
2013-03-22 01:37:00,28.0,21.4,30.14,West,263,4.6,4.6,76,0.00,,,0.00,0.0,WeatherDisplay:10.37,2013-03-22 08:37:00,
2013-03-22 01:39:00,28.0,21.4,30.14,West,271,6.9,6.9,76,0.00,,,0.00,0.0,WeatherDisplay:10.37,2013-03-22 08:39:00,
2013-03-22 01:40:00,28.1,21.5,30.14,West,275,7.0,7.0,76,0.00,,,0.00,0.0,WeatherDisplay:10.37,2013-03-22 08:40:00,
2013-03-22 01:42:00,28.1,21.5,30.13,WNW,286,6.9,6.9,76,0.00,,,0.00,0.0,WeatherDisplay:10.37,2013-03-22 08:42:00,
2013-03-22 01:44:00,28.1,21.5,30.13,WSW,257,4.6,4.6,76,0.00,,,0.00,0.0,WeatherDisplay:10.37,2013-03-22 08:44:00,
2013-03-22 01:45:00,28.1,21.5,30.14,WNW,286,5.8,5.8,76,0.00,,,0.00,0.0,WeatherDisplay:10.37,2013-03-22 08:45:00,
2013-03-22 01:48:00,28.0,21.4,30.13,West,263,4.6,4.6,76,0.00,,,0.00,0.0,WeatherDisplay:10.37,2013-03-22 08:48:00,
2013-03-22 01:49:00,28.0,21.4,30.14,WNW,291,6.9,6.9,76,0.00,,,0.00,0.0,WeatherDisplay:10.37,2013-03-22 08:49:00,
2013-03-22 01:50:00,28.0,21.4,30.13,WNW,301,9.2,9.2,76,0.00,,,0.00,0.0,WeatherDisplay:10.37,2013-03-22 08:50:00,
2013-03-22 01:53:00,28.0,21.4,30.13,NW,309,8.1,8.1,76,0.00,,,0.00,0.0,WeatherDisplay:10.37,2013-03-22 08:53:00,
2013-03-22 01:55:00,28.0,21.4,30.14,West,278,8.1,8.1,76,0.00,,,0.00,0.0,WeatherDisplay:10.37,2013-03-22 08:55:00,
2013-03-22 01:56:00,28.0,21.1,30.13,West,280,5.0,5.0,75,0.00,,,0.00,0.0,WeatherDisplay:10.37,2013-03-22 08:56:00,
2013-03-22 01:58:00,27.9,21.3,30.13,West,277,5.8,5.8,76,0.00,,,0.00,0.0,WeatherDisplay:10.37,2013-03-22 08:58:00,
2013-03-22 02:00:00,27.9,21.0,30.13,West,277,4.6,4.6,75,0.00,,,0.00,0.0,WeatherDisplay:10.37,2013-03-22 09:00:00,
2013-03-22 02:01:00,27.9,21.0,30.13,West,277,3.5,3.5,75,0.00,,,0.00,0.0,WeatherDisplay:10.37,2013-03-22 09:01:00,
2013-03-22 02:02:00,27.8,20.9,30.13,NW,311,3.5,3.5,75,0.00,,,0.00,0.0,WeatherDisplay:10.37,2013-03-22 09:02:00,
2013-03-22 02:03:00,27.7,20.8,30.13,WNW,295,3.5,3.5,75,0.00,,,0.00,0.0,WeatherDisplay:10.37,2013-03-22 09:03:00,
2013-03-22 02:05:00,27.7,20.8,30.13,WNW,300,3.5,3.5,75,0.00,,,0.00,0.0,WeatherDisplay:10.37,2013-03-22 09:05:00,
2013-03-22 02:06:00,27.6,20.7,30.13,WNW,294,3.5,3.5,75,0.00,,,0.00,0.0,WeatherDisplay:10.37,2013-03-22 09:06:00,
2013-03-22 02:07:00,27.6,20.7,30.13,WNW,294,2.3,2.3,75,0.00,,,0.00,0.0,WeatherDisplay:10.37,2013-03-22 09:07:00,
2013-03-22 02:08:00,27.5,20.6,30.13,WNW,292,3.5,3.5,75,0.00,,,0.00,0.0,WeatherDisplay:10.37,2013-03-22 09:08:00,
2013-03-22 02:10:00,27.5,20.6,30.13,NW,315,5.0,5.0,75,0.00,,,0.00,0.0,WeatherDisplay:10.37,2013-03-22 09:10:00,
2013-03-22 02:12:00,27.5,20.6,30.13,WNW,302,4.6,4.6,75,0.00,,,0.00,0.0,WeatherDisplay:10.37,2013-03-22 09:12:00,
2013-03-22 02:14:00,27.6,20.7,30.13,WNW,300,3.5,3.5,75,0.00,,,0.00,0.0,WeatherDisplay:10.37,2013-03-22 09:14:00,
2013-03-22 02:15:00,27.6,20.7,30.13,WNW,295,3.5,3.5,75,0.00,,,0.00,0.0,WeatherDisplay:10.37,2013-03-22 09:15:00,
2013-03-22 02:17:00,27.6,20.7,30.13,WNW,295,2.3,2.3,75,0.00,,,0.00,0.0,WeatherDisplay:10.37,2013-03-22 09:17:00,
2013-03-22 02:18:00,27.6,20.7,30.13,WNW,294,3.5,3.5,75,0.00,,,0.00,0.0,WeatherDisplay:10.37,2013-03-22 09:18:00,
2013-03-22 02:19:00,27.6,20.7,30.13,WNW,294,3.5,3.5,75,0.00,,,0.00,0.0,WeatherDisplay:10.37,2013-03-22 09:19:00,
2013-03-22 02:20:00,27.6,20.7,30.14,WNW,294,3.5,3.5,75,0.00,,,0.00,0.0,WeatherDisplay:10.37,2013-03-22 09:20:00,
2013-03-22 02:23:00,27.6,20.7,30.14,WNW,294,5.0,5.0,75,0.00,,,0.00,0.0,WeatherDisplay:10.37,2013-03-22 09:23:00,
2013-03-22 02:24:00,27.6,20.7,30.14,WNW,294,4.6,4.6,75,0.00,,,0.00,0.0,WeatherDisplay:10.37,2013-03-22 09:24:00,
2013-03-22 02:26:00,27.6,20.7,30.14,WNW,294,2.3,2.3,75,0.00,,,0.00,0.0,WeatherDisplay:10.37,2013-03-22 09:26:00,
2013-03-22 02:28:00,27.5,20.6,30.14,WNW,294,1.2,0.0,75,0.00,,,0.00,0.0,WeatherDisplay:10.37,2013-03-22 09:28:00,
2013-03-22 02:29:00,27.5,20.6,30.14,WNW,294,1.2,1.2,75,0.00,,,0.00,0.0,WeatherDisplay:10.37,2013-03-22 09:29:00,
2013-03-22 02:32:00,27.4,20.5,30.14,WNW,294,0.0,0.0,75,0.00,,,0.00,0.0,WeatherDisplay:10.37,2013-03-22 09:32:00,
2013-03-22 02:33:00,27.4,20.8,30.14,WNW,294,1.2,1.2,76,0.00,,,0.00,0.0,WeatherDisplay:10.37,2013-03-22 09:33:00,
2013-03-22 02:34:00,27.4,20.8,30.14,WNW,294,3.0,3.0,76,0.00,,,0.00,0.0,WeatherDisplay:10.37,2013-03-22 09:34:00,
2013-03-22 02:35:00,27.4,20.8,30.14,WNW,294,1.2,1.4,76,0.00,,,0.00,0.0,WeatherDisplay:10.37,2013-03-22 09:35:00,
2013-03-22 02:37:00,27.4,20.8,30.14,WNW,294,1.2,1.2,76,0.00,,,0.00,0.0,WeatherDisplay:10.37,2013-03-22 09:37:00,
2013-03-22 02:38:00,27.4,20.8,30.14,WNW,294,1.2,0.0,76,0.00,,,0.00,0.0,WeatherDisplay:10.37,2013-03-22 09:38:00,
2013-03-22 02:40:00,27.4,20.8,30.14,WNW,294,0.0,0.0,76,0.00,,,0.00,0.0,WeatherDisplay:10.37,2013-03-22 09:40:00,
2013-03-22 02:43:00,27.6,21.0,30.14,WNW,296,3.5,3.5,76,0.00,,,0.00,0.0,WeatherDisplay:10.37,2013-03-22 09:43:00,
2013-03-22 02:45:00,27.7,20.8,30.14,WNW,296,3.5,3.5,75,0.00,,,0.00,0.0,WeatherDisplay:10.37,2013-03-22 09:45:00,
2013-03-22 02:48:00,27.8,21.2,30.14,WNW,302,6.0,6.0,76,0.00,,,0.00,0.0,WeatherDisplay:10.37,2013-03-22 09:48:00,
2013-03-22 02:50:00,27.9,21.3,30.14,WNW,293,4.6,4.6,76,0.00,,,0.00,0.0,WeatherDisplay:10.37,2013-03-22 09:50:00,
2013-03-22 02:52:00,27.9,21.3,30.14,WNW,294,3.5,3.5,76,0.00,,,0.00,0.0,WeatherDisplay:10.37,2013-03-22 09:52:00,
2013-03-22 02:53:00,28.0,21.4,30.14,WNW,286,4.6,4.6,76,0.00,,,0.00,0.0,WeatherDisplay:10.37,2013-03-22 09:53:00,
2013-03-22 02:55:00,28.0,21.4,30.14,WNW,286,2.3,2.3,76,0.00,,,0.00,0.0,WeatherDisplay:10.37,2013-03-22 09:55:00,
2013-03-22 02:57:00,28.0,21.4,30.14,WNW,286,1.2,1.2,76,0.00,,,0.00,0.0,WeatherDisplay:10.37,2013-03-22 09:57:00,
2013-03-22 02:58:00,28.0,21.4,30.14,West,281,4.6,4.6,76,0.00,,,0.00,0.0,WeatherDisplay:10.37,2013-03-22 09:58:00,
2013-03-22 02:59:00,28.0,21.4,30.14,West,281,4.6,4.6,76,0.00,,,0.00,0.0,WeatherDisplay:10.37,2013-03-22 09:59:00,
2013-03-22 03:00:00,28.0,21.7,30.14,West,281,4.6,4.6,77,0.00,,,0.00,0.0,WeatherDisplay:10.37,2013-03-22 10:00:00,
2013-03-22 03:02:00,28.1,21.8,30.14,WNW,290,4.6,4.6,77,0.00,,,0.00,0.0,WeatherDisplay:10.37,2013-03-22 10:02:00,
2013-03-22 03:03:00,28.1,21.8,30.14,West,278,2.3,2.3,77,0.00,,,0.00,0.0,WeatherDisplay:10.37,2013-03-22 10:03:00,
2013-03-22 03:04:00,28.1,21.8,30.14,West,278,2.3,2.3,77,0.00,,,0.00,0.0,WeatherDisplay:10.37,2013-03-22 10:04:00,
2013-03-22 03:06:00,28.1,21.8,30.14,WNW,289,4.6,4.6,77,0.00,,,0.00,0.0,WeatherDisplay:10.37,2013-03-22 10:06:00,
2013-03-22 03:07:00,28.1,21.8,30.14,WNW,289,3.5,3.5,77,0.00,,,0.00,0.0,WeatherDisplay:10.37,2013-03-22 10:07:00,
2013-03-22 03:09:00,28.3,21.7,30.14,West,277,6.9,6.9,76,0.00,,,0.00,0.0,WeatherDisplay:10.37,2013-03-22 10:09:00,
2013-03-22 03:11:00,28.3,21.7,30.14,West,259,4.6,4.6,76,0.00,,,0.00,0.0,WeatherDisplay:10.37,2013-03-22 10:11:00,
2013-03-22 03:13:00,28.4,21.8,30.14,West,276,6.9,6.9,76,0.00,,,0.00,0.0,WeatherDisplay:10.37,2013-03-22 10:13:00,
2013-03-22 03:14:00,28.4,21.8,30.14,West,278,10.0,10.0,76,0.00,,,0.00,0.0,WeatherDisplay:10.37,2013-03-22 10:14:00,
2013-03-22 03:17:00,28.5,21.6,30.13,West,273,8.1,8.1,75,0.00,,,0.00,0.0,WeatherDisplay:10.37,2013-03-22 10:17:00,
2013-03-22 03:19:00,28.5,21.6,30.13,West,277,9.2,9.2,75,0.00,,,0.00,0.0,WeatherDisplay:10.37,2013-03-22 10:19:00,
2013-03-22 03:22:00,28.5,21.6,30.14,West,269,5.0,5.0,75,0.00,,,0.00,0.0,WeatherDisplay:10.37,2013-03-22 10:22:00,
2013-03-22 03:24:00,28.6,21.7,30.13,West,272,8.0,8.0,75,0.00,,,0.00,0.0,WeatherDisplay:10.37,2013-03-22 10:24:00,
2013-03-22 03:27:00,28.5,21.9,30.14,West,261,9.2,9.2,76,0.00,,,0.00,0.0,WeatherDisplay:10.37,2013-03-22 10:27:00,
2013-03-22 03:29:00,28.5,21.9,30.14,West,273,9.0,9.0,76,0.00,,,0.00,0.0,WeatherDisplay:10.37,2013-03-22 10:29:00,
2013-03-22 03:30:00,28.5,21.9,30.14,West,272,10.4,10.4,76,0.00,,,0.00,0.0,WeatherDisplay:10.37,2013-03-22 10:30:00,
2013-03-22 03:32:00,28.5,21.9,30.14,West,265,8.1,8.1,76,0.00,,,0.00,0.0,WeatherDisplay:10.37,2013-03-22 10:32:00,
2013-03-22 03:34:00,28.5,21.9,30.14,West,262,9.2,9.2,76,0.00,,,0.00,0.0,WeatherDisplay:10.37,2013-03-22 10:34:00,
2013-03-22 03:35:00,28.5,21.9,30.14,West,269,8.1,8.1,76,0.00,,,0.00,0.0,WeatherDisplay:10.37,2013-03-22 10:35:00,
2013-03-22 03:38:00,28.5,21.9,30.14,West,270,7.0,7.0,76,0.00,,,0.00,0.0,WeatherDisplay:10.37,2013-03-22 10:38:00,
2013-03-22 03:39:00,28.5,22.2,30.14,West,272,9.2,9.2,77,0.00,,,0.00,0.0,WeatherDisplay:10.37,2013-03-22 10:39:00,
2013-03-22 03:40:00,28.5,22.2,30.14,West,265,6.9,6.9,77,0.00,,,0.00,0.0,WeatherDisplay:10.37,2013-03-22 10:40:00,
2013-03-22 03:43:00,28.4,22.4,30.14,WSW,254,6.9,6.9,78,0.00,,,0.00,0.0,WeatherDisplay:10.37,2013-03-22 10:43:00,
2013-03-22 03:44:00,28.3,22.6,30.14,West,274,9.2,9.2,79,0.00,,,0.00,0.0,WeatherDisplay:10.37,2013-03-22 10:44:00,
2013-03-22 03:45:00,28.2,22.5,30.14,West,262,12.7,12.7,79,0.00,,,0.00,0.0,WeatherDisplay:10.37,2013-03-22 10:45:00,
2013-03-22 03:48:00,27.8,23.0,30.14,West,281,8.1,8.1,82,0.00,,,0.00,0.0,WeatherDisplay:10.37,2013-03-22 10:48:00,
2013-03-22 03:49:00,27.7,23.2,30.14,West,267,8.1,8.1,83,0.00,,,0.00,0.0,WeatherDisplay:10.37,2013-03-22 10:49:00,
2013-03-22 03:50:00,27.6,23.1,30.14,SW,234,8.1,8.1,83,0.00,,,0.00,0.0,WeatherDisplay:10.37,2013-03-22 10:50:00,
2013-03-22 03:53:00,27.5,23.3,30.14,West,260,8.1,8.1,84,0.00,,,0.00,0.0,WeatherDisplay:10.37,2013-03-22 10:53:00,
2013-03-22 03:54:00,27.5,23.6,30.13,West,280,6.9,6.9,85,0.00,,,0.00,0.0,WeatherDisplay:10.37,2013-03-22 10:54:00,
2013-03-22 03:55:00,27.5,23.6,30.13,West,274,6.9,6.9,85,0.00,,,0.00,0.0,WeatherDisplay:10.37,2013-03-22 10:55:00,
2013-03-22 03:56:00,27.4,23.5,30.13,West,270,6.9,6.9,85,0.00,,,0.00,0.0,WeatherDisplay:10.37,2013-03-22 10:56:00,
2013-03-22 03:58:00,27.4,23.5,30.13,West,275,6.9,6.9,85,0.00,,,0.00,0.0,WeatherDisplay:10.37,2013-03-22 10:58:00,
2013-03-22 04:00:00,27.4,23.5,30.13,West,281,4.0,4.0,85,0.00,,,0.00,0.0,WeatherDisplay:10.37,2013-03-22 11:00:00,
2013-03-22 04:01:00,27.4,23.5,30.13,West,273,3.5,3.5,85,0.00,,,0.00,0.0,WeatherDisplay:10.37,2013-03-22 11:01:00,
2013-03-22 04:04:00,27.5,23.6,30.13,West,273,4.6,4.6,85,0.00,,,0.00,0.0,WeatherDisplay:10.37,2013-03-22 11:04:00,
2013-03-22 04:06:00,27.5,23.6,30.13,West,268,5.8,5.8,85,0.00,,,0.00,0.0,WeatherDisplay:10.37,2013-03-22 11:06:00,
2013-03-22 04:09:00,27.5,23.9,30.13,West,261,4.6,4.6,86,0.00,,,0.00,0.0,WeatherDisplay:10.37,2013-03-22 11:09:00,
2013-03-22 04:11:00,27.5,23.9,30.13,West,269,8.1,8.1,86,0.00,,,0.00,0.0,WeatherDisplay:10.37,2013-03-22 11:11:00,
2013-03-22 04:12:00,27.5,23.9,30.13,WSW,255,4.6,4.6,86,0.00,,,0.00,0.0,WeatherDisplay:10.37,2013-03-22 11:12:00,
2013-03-22 04:14:00,27.5,23.9,30.13,West,271,5.8,5.8,86,0.00,,,0.00,0.0,WeatherDisplay:10.37,2013-03-22 11:14:00,
2013-03-22 04:16:00,27.4,23.8,30.13,WSW,258,4.6,4.6,86,0.00,,,0.00,0.0,WeatherDisplay:10.37,2013-03-22 11:16:00,
2013-03-22 04:17:00,27.4,23.8,30.13,West,271,4.6,4.6,86,0.00,,,0.00,0.0,WeatherDisplay:10.37,2013-03-22 11:17:00,
2013-03-22 04:18:00,27.3,23.7,30.13,West,267,3.5,3.5,86,0.00,,,0.00,0.0,WeatherDisplay:10.37,2013-03-22 11:18:00,
2013-03-22 04:19:00,27.2,23.6,30.13,WSW,244,4.6,4.6,86,0.00,,,0.00,0.0,WeatherDisplay:10.37,2013-03-22 11:19:00,
2013-03-22 04:21:00,27.2,23.6,30.13,WSW,254,4.6,4.6,86,0.00,,,0.00,0.0,WeatherDisplay:10.37,2013-03-22 11:21:00,
2013-03-22 04:22:00,27.1,23.5,30.13,WSW,252,3.5,3.5,86,0.00,,,0.00,0.0,WeatherDisplay:10.37,2013-03-22 11:22:00,
2013-03-22 04:24:00,27.0,23.4,30.13,West,264,3.5,3.5,86,0.00,,,0.00,0.0,WeatherDisplay:10.37,2013-03-22 11:24:00,
2013-03-22 04:26:00,26.9,23.3,30.13,West,268,3.5,3.5,86,0.00,,,0.00,0.0,WeatherDisplay:10.37,2013-03-22 11:26:00,
2013-03-22 04:27:00,26.8,23.2,30.13,West,268,4.0,4.0,86,0.00,,,0.00,0.0,WeatherDisplay:10.37,2013-03-22 11:27:00,
2013-03-22 04:29:00,26.7,23.1,30.13,West,268,3.5,3.5,86,0.00,,,0.00,0.0,WeatherDisplay:10.37,2013-03-22 11:29:00,
2013-03-22 04:31:00,26.6,23.0,30.13,West,274,3.5,3.5,86,0.00,,,0.00,0.0,WeatherDisplay:10.37,2013-03-22 11:31:00,
2013-03-22 04:32:00,26.6,23.3,30.13,West,274,2.3,2.3,87,0.00,,,0.00,0.0,WeatherDisplay:10.37,2013-03-22 11:32:00,
2013-03-22 04:34:00,26.5,23.2,30.13,West,274,2.3,2.3,87,0.00,,,0.00,0.0,WeatherDisplay:10.37,2013-03-22 11:34:00,
2013-03-22 04:36:00,26.4,23.1,30.13,West,274,0.0,0.0,87,0.00,,,0.00,0.0,WeatherDisplay:10.37,2013-03-22 11:36:00,
2013-03-22 04:37:00,26.4,23.1,30.13,West,274,0.0,0.0,87,0.00,,,0.00,0.0,WeatherDisplay:10.37,2013-03-22 11:37:00,
2013-03-22 04:40:00,26.3,23.0,30.13,West,274,0.0,0.0,87,0.00,,,0.00,0.0,WeatherDisplay:10.37,2013-03-22 11:40:00,
2013-03-22 04:42:00,26.3,23.0,30.13,West,274,0.0,0.0,87,0.00,,,0.00,0.0,WeatherDisplay:10.37,2013-03-22 11:42:00,
2013-03-22 04:43:00,26.3,23.0,30.13,West,274,0.0,0.0,87,0.00,,,0.00,0.0,WeatherDisplay:10.37,2013-03-22 11:43:00,
2013-03-22 04:45:00,26.3,23.0,30.13,West,274,1.2,1.2,87,0.00,,,0.00,0.0,WeatherDisplay:10.37,2013-03-22 11:45:00,
2013-03-22 04:47:00,26.3,23.0,30.13,West,274,1.2,0.0,87,0.00,,,0.00,0.0,WeatherDisplay:10.37,2013-03-22 11:47:00,
2013-03-22 04:48:00,26.2,22.9,30.13,West,274,0.0,0.0,87,0.00,,,0.00,0.0,WeatherDisplay:10.37,2013-03-22 11:48:00,
2013-03-22 04:50:00,26.3,23.0,30.13,West,274,1.2,1.2,87,0.00,,,0.00,0.0,WeatherDisplay:10.37,2013-03-22 11:50:00,
2013-03-22 04:52:00,26.3,23.2,30.13,West,274,0.0,0.0,88,0.00,,,0.00,0.0,WeatherDisplay:10.37,2013-03-22 11:52:00,
2013-03-22 04:53:00,26.2,23.1,30.13,West,274,0.0,0.0,88,0.00,,,0.00,0.0,WeatherDisplay:10.37,2013-03-22 11:53:00,
2013-03-22 04:55:00,26.2,22.9,30.13,West,274,0.0,0.0,87,0.00,,,0.00,0.0,WeatherDisplay:10.37,2013-03-22 11:55:00,
2013-03-22 04:58:00,26.1,22.8,30.13,West,274,0.0,0.0,87,0.00,,,0.00,0.0,WeatherDisplay:10.37,2013-03-22 11:58:00,
2013-03-22 04:59:00,26.1,22.8,30.13,West,274,0.0,0.0,87,0.00,,,0.00,0.0,WeatherDisplay:10.37,2013-03-22 11:59:00,
2013-03-22 05:00:00,26.0,22.7,30.13,West,274,0.0,0.0,87,0.00,,,0.00,0.0,WeatherDisplay:10.37,2013-03-22 12:00:00,
2013-03-22 05:03:00,25.9,22.6,30.13,West,274,0.0,0.0,87,0.00,,,0.00,0.0,WeatherDisplay:10.37,2013-03-22 12:03:00,
2013-03-22 05:04:00,25.8,22.5,30.13,West,274,0.0,0.0,87,0.00,,,0.00,0.0,WeatherDisplay:10.37,2013-03-22 12:04:00,
2013-03-22 05:06:00,25.7,22.4,30.13,West,274,0.0,0.4,87,0.00,,,0.00,0.0,WeatherDisplay:10.37,2013-03-22 12:06:00,
2013-03-22 05:08:00,25.7,22.4,30.13,West,274,0.0,0.0,87,0.00,,,0.00,0.0,WeatherDisplay:10.37,2013-03-22 12:08:00,
2013-03-22 05:09:00,25.7,22.4,30.13,West,274,0.0,0.0,87,0.00,,,0.00,0.0,WeatherDisplay:10.37,2013-03-22 12:09:00,
2013-03-22 05:11:00,25.7,22.4,30.13,West,274,0.0,0.0,87,0.00,,,0.00,0.0,WeatherDisplay:10.37,2013-03-22 12:11:00,
2013-03-22 05:13:00,25.6,22.3,30.13,West,274,0.0,0.0,87,0.00,,,0.00,0.0,WeatherDisplay:10.37,2013-03-22 12:13:00,
2013-03-22 05:14:00,25.6,22.3,30.13,West,274,0.0,0.0,87,0.00,,,0.00,0.0,WeatherDisplay:10.37,2013-03-22 12:14:00,
2013-03-22 05:16:00,25.6,22.3,30.13,West,274,0.0,0.0,87,0.00,,,0.00,0.0,WeatherDisplay:10.37,2013-03-22 12:16:00,
2013-03-22 05:18:00,25.6,22.3,30.13,West,274,0.0,0.0,87,0.00,,,0.00,0.0,WeatherDisplay:10.37,2013-03-22 12:18:00,
2013-03-22 05:19:00,25.5,22.2,30.13,West,274,0.0,0.0,87,0.00,,,0.00,0.0,WeatherDisplay:10.37,2013-03-22 12:19:00,
2013-03-22 05:21:00,25.5,22.2,30.13,West,274,3.5,3.5,87,0.00,,,0.00,0.0,WeatherDisplay:10.37,2013-03-22 12:21:00,
2013-03-22 05:23:00,25.6,22.3,30.13,West,274,0.0,0.0,87,0.00,,,0.00,0.0,WeatherDisplay:10.37,2013-03-22 12:23:00,
2013-03-22 05:24:00,25.5,22.2,30.13,West,274,0.0,0.0,87,0.00,,,0.00,0.0,WeatherDisplay:10.37,2013-03-22 12:24:00,
2013-03-22 05:27:00,25.4,22.1,30.13,West,274,2.3,2.3,87,0.00,,,0.00,0.0,WeatherDisplay:10.37,2013-03-22 12:27:00,
2013-03-22 05:28:00,25.4,22.1,30.13,West,274,1.2,1.2,87,0.00,,,0.00,0.0,WeatherDisplay:10.37,2013-03-22 12:28:00,
2013-03-22 05:29:00,25.3,22.0,30.13,West,274,1.2,1.2,87,0.00,,,0.00,0.0,WeatherDisplay:10.37,2013-03-22 12:29:00,
2013-03-22 05:32:00,25.3,22.0,30.13,West,274,1.2,0.0,87,0.00,,,0.00,0.0,WeatherDisplay:10.37,2013-03-22 12:32:00,
2013-03-22 05:33:00,25.2,21.9,30.13,West,274,1.2,0.0,87,0.00,,,0.00,0.0,WeatherDisplay:10.37,2013-03-22 12:33:00,
2013-03-22 05:34:00,25.2,21.9,30.13,West,274,1.2,1.2,87,0.00,,,0.00,0.0,WeatherDisplay:10.37,2013-03-22 12:34:00,
2013-03-22 05:37:00,25.2,21.6,30.13,West,274,0.0,0.0,86,0.00,,,0.00,0.0,WeatherDisplay:10.37,2013-03-22 12:37:00,
2013-03-22 05:38:00,25.2,21.6,30.13,West,274,0.0,0.3,86,0.00,,,0.00,0.0,WeatherDisplay:10.37,2013-03-22 12:38:00,
2013-03-22 05:39:00,25.2,21.6,30.13,West,274,2.3,2.3,86,0.00,,,0.00,0.0,WeatherDisplay:10.37,2013-03-22 12:39:00,
2013-03-22 05:40:00,25.2,21.6,30.13,West,274,2.3,2.3,86,0.00,,,0.00,0.0,WeatherDisplay:10.37,2013-03-22 12:40:00,
2013-03-22 05:42:00,25.2,21.3,30.13,West,274,0.0,0.0,85,0.00,,,0.00,0.0,WeatherDisplay:10.37,2013-03-22 12:42:00,
2013-03-22 05:44:00,25.2,21.3,30.13,West,274,0.0,0.0,85,0.00,,,0.00,0.0,WeatherDisplay:10.37,2013-03-22 12:44:00,
2013-03-22 05:46:00,25.2,21.3,30.13,West,274,0.0,0.0,85,0.00,,,0.00,0.0,WeatherDisplay:10.37,2013-03-22 12:46:00,
2013-03-22 05:47:00,25.2,21.3,30.13,West,274,0.0,0.0,85,0.00,,,0.00,0.0,WeatherDisplay:10.37,2013-03-22 12:47:00,
2013-03-22 05:49:00,25.1,21.2,30.14,West,274,0.0,0.0,85,0.00,,,0.00,0.0,WeatherDisplay:10.37,2013-03-22 12:49:00,
2013-03-22 05:51:00,25.0,21.1,30.14,West,274,0.0,0.0,85,0.00,,,0.00,0.0,WeatherDisplay:10.37,2013-03-22 12:51:00,
2013-03-22 05:53:00,25.0,21.1,30.14,West,274,0.0,0.0,85,0.00,,,0.00,0.0,WeatherDisplay:10.37,2013-03-22 12:53:00,
2013-03-22 05:54:00,24.9,21.0,30.14,West,274,0.0,0.0,85,0.00,,,0.00,0.0,WeatherDisplay:10.37,2013-03-22 12:54:00,
2013-03-22 05:55:00,24.9,21.0,30.14,West,274,0.0,0.0,85,0.00,,,0.00,0.0,WeatherDisplay:10.37,2013-03-22 12:55:00,
2013-03-22 05:56:00,24.8,20.9,30.14,West,274,0.0,0.0,85,0.00,,,0.00,0.0,WeatherDisplay:10.37,2013-03-22 12:56:00,
2013-03-22 05:58:00,24.7,20.8,30.14,West,274,0.0,0.0,85,0.00,,,0.00,0.0,WeatherDisplay:10.37,2013-03-22 12:58:00,
2013-03-22 05:59:00,24.7,20.8,30.14,West,274,0.0,0.0,85,0.00,,,0.00,0.0,WeatherDisplay:10.37,2013-03-22 12:59:00,
2013-03-22 06:00:00,24.7,20.8,30.14,West,274,0.0,0.0,85,0.00,,,0.00,0.0,WeatherDisplay:10.37,2013-03-22 13:00:00,
2013-03-22 06:02:00,24.6,20.7,30.14,West,274,0.0,0.0,85,0.00,,,0.00,0.0,WeatherDisplay:10.37,2013-03-22 13:02:00,
2013-03-22 06:03:00,24.5,20.6,30.14,West,274,0.0,0.0,85,0.00,,,0.00,0.0,WeatherDisplay:10.37,2013-03-22 13:03:00,
2013-03-22 06:05:00,24.4,20.5,30.14,West,274,0.0,0.0,85,0.00,,,0.00,0.0,WeatherDisplay:10.37,2013-03-22 13:05:00,
2013-03-22 06:07:00,24.3,20.4,30.14,West,274,0.0,0.0,85,0.00,,,0.00,0.0,WeatherDisplay:10.37,2013-03-22 13:07:00,
2013-03-22 06:08:00,24.2,20.3,30.14,West,274,0.0,0.0,85,0.00,,,0.00,0.0,WeatherDisplay:10.37,2013-03-22 13:08:00,
2013-03-22 06:10:00,24.1,20.2,30.14,West,274,0.0,0.1,85,0.00,,,0.00,0.0,WeatherDisplay:10.37,2013-03-22 13:10:00,
2013-03-22 06:12:00,24.0,20.4,30.14,West,274,0.0,0.0,86,0.00,,,0.00,0.0,WeatherDisplay:10.37,2013-03-22 13:12:00,
2013-03-22 06:14:00,23.9,20.3,30.14,West,274,0.0,0.0,86,0.00,,,0.00,0.0,WeatherDisplay:10.37,2013-03-22 13:14:00,
2013-03-22 06:15:00,23.8,20.2,30.14,West,274,0.0,0.0,86,0.00,,,0.00,0.0,WeatherDisplay:10.37,2013-03-22 13:15:00,
2013-03-22 06:16:00,23.8,20.2,30.14,West,274,0.0,0.0,86,0.00,,,0.00,0.0,WeatherDisplay:10.37,2013-03-22 13:16:00,
2013-03-22 06:17:00,23.7,20.1,30.14,West,274,0.0,0.0,86,0.00,,,0.00,0.0,WeatherDisplay:10.37,2013-03-22 13:17:00,
2013-03-22 06:20:00,23.5,19.9,30.14,West,274,0.0,0.0,86,0.00,,,0.00,0.0,WeatherDisplay:10.37,2013-03-22 13:20:00,
2013-03-22 06:21:00,23.4,19.8,30.14,West,274,0.0,0.0,86,0.00,,,0.00,0.0,WeatherDisplay:10.37,2013-03-22 13:21:00,
2013-03-22 06:23:00,23.3,20.0,30.14,West,274,0.0,0.0,87,0.00,,,0.00,0.0,WeatherDisplay:10.37,2013-03-22 13:23:00,
2013-03-22 06:25:00,23.3,20.0,30.14,West,274,1.0,1.0,87,0.00,,,0.00,0.0,WeatherDisplay:10.37,2013-03-22 13:25:00,
2013-03-22 06:26:00,23.4,20.4,30.14,West,274,1.2,0.0,88,0.00,,,0.00,0.0,WeatherDisplay:10.37,2013-03-22 13:26:00,
2013-03-22 06:28:00,23.5,20.5,30.14,West,274,0.0,0.0,88,0.00,,,0.00,0.0,WeatherDisplay:10.37,2013-03-22 13:28:00,
2013-03-22 06:30:00,23.5,20.5,30.14,West,274,0.0,0.0,88,0.00,,,0.00,0.0,WeatherDisplay:10.37,2013-03-22 13:30:00,
2013-03-22 06:32:00,23.5,20.5,30.14,West,274,0.0,0.0,88,0.00,,,0.00,0.0,WeatherDisplay:10.37,2013-03-22 13:32:00,
2013-03-22 06:34:00,23.5,20.5,30.14,West,274,0.0,0.0,88,0.00,,,0.00,0.0,WeatherDisplay:10.37,2013-03-22 13:34:00,
2013-03-22 06:35:00,23.5,20.5,30.14,West,274,0.0,0.0,88,0.00,,,0.00,0.0,WeatherDisplay:10.37,2013-03-22 13:35:00,
2013-03-22 06:36:00,23.5,20.5,30.14,West,274,0.0,0.0,88,0.00,,,0.00,0.0,WeatherDisplay:10.37,2013-03-22 13:36:00,
2013-03-22 06:37:00,23.4,20.4,30.14,West,274,0.0,0.0,88,0.00,,,0.00,0.0,WeatherDisplay:10.37,2013-03-22 13:37:00,
2013-03-22 06:39:00,23.3,20.3,30.15,West,274,1.0,0.0,88,0.00,,,0.00,0.0,WeatherDisplay:10.37,2013-03-22 13:39:00,
2013-03-22 06:40:00,23.2,20.2,30.15,West,274,1.2,0.0,88,0.00,,,0.00,0.0,WeatherDisplay:10.37,2013-03-22 13:40:00,
2013-03-22 06:41:00,23.2,20.2,30.15,West,274,1.2,0.0,88,0.00,,,0.00,0.0,WeatherDisplay:10.37,2013-03-22 13:41:00,
2013-03-22 06:42:00,23.2,20.2,30.15,West,274,0.0,0.0,88,0.00,,,0.00,0.0,WeatherDisplay:10.37,2013-03-22 13:42:00,
2013-03-22 06:44:00,22.9,19.6,30.15,West,274,1.2,1.2,87,0.00,,,0.00,0.0,WeatherDisplay:10.37,2013-03-22 13:44:00,
2013-03-22 06:45:00,22.8,19.5,30.15,West,274,0.0,0.0,87,0.00,,,0.00,0.0,WeatherDisplay:10.37,2013-03-22 13:45:00,
2013-03-22 06:46:00,22.7,19.4,30.15,West,274,0.0,0.0,87,0.00,,,0.00,0.0,WeatherDisplay:10.37,2013-03-22 13:46:00,
2013-03-22 06:48:00,22.7,19.4,30.15,West,274,0.0,0.1,87,0.00,,,0.00,0.0,WeatherDisplay:10.37,2013-03-22 13:48:00,
2013-03-22 06:49:00,22.6,19.3,30.15,West,274,0.0,0.0,87,0.00,,,0.00,0.0,WeatherDisplay:10.37,2013-03-22 13:49:00,
2013-03-22 06:50:00,22.6,19.3,30.15,West,274,0.0,0.0,87,0.00,,,0.00,0.0,WeatherDisplay:10.37,2013-03-22 13:50:00,
2013-03-22 06:51:00,22.6,19.3,30.15,West,274,0.0,0.0,87,0.00,,,0.00,0.0,WeatherDisplay:10.37,2013-03-22 13:51:00,
2013-03-22 06:54:00,22.5,19.2,30.15,West,274,0.0,0.0,87,0.00,,,0.00,0.0,WeatherDisplay:10.37,2013-03-22 13:54:00,
2013-03-22 06:55:00,22.6,19.3,30.14,West,274,0.0,0.0,87,0.00,,,0.00,0.0,WeatherDisplay:10.37,2013-03-22 13:55:00,
2013-03-22 06:56:00,22.6,19.6,30.15,West,274,0.0,0.0,88,0.00,,,0.00,0.0,WeatherDisplay:10.37,2013-03-22 13:56:00,
2013-03-22 06:59:00,22.5,19.5,30.15,West,274,0.0,0.0,88,0.00,,,0.00,0.0,WeatherDisplay:10.37,2013-03-22 13:59:00,
2013-03-22 07:00:00,22.5,19.5,30.15,West,274,0.0,0.0,88,0.00,,,0.00,0.0,WeatherDisplay:10.37,2013-03-22 14:00:00,
2013-03-22 07:02:00,22.6,19.6,30.15,West,274,0.0,0.0,88,0.00,,,0.00,0.0,WeatherDisplay:10.37,2013-03-22 14:02:00,
2013-03-22 07:04:00,22.7,19.7,30.14,West,274,0.0,0.0,88,0.00,,,0.00,6.0,WeatherDisplay:10.37,2013-03-22 14:04:00,
2013-03-22 07:05:00,22.7,19.7,30.14,West,274,0.0,0.0,88,0.00,,,0.00,6.0,WeatherDisplay:10.37,2013-03-22 14:05:00,
2013-03-22 07:07:00,22.7,19.7,30.14,West,274,0.0,0.0,88,0.00,,,0.00,6.0,WeatherDisplay:10.37,2013-03-22 14:07:00,
2013-03-22 07:09:00,22.8,19.8,30.14,West,274,2.3,2.3,88,0.00,CLR,,0.00,8.4,WeatherDisplay:10.37,2013-03-22 14:09:00,
2013-03-22 07:11:00,22.9,19.9,30.14,West,274,1.2,1.2,88,0.00,CLR,,0.00,10.8,WeatherDisplay:10.37,2013-03-22 14:11:00,
2013-03-22 07:12:00,22.9,19.9,30.14,West,274,1.2,1.2,88,0.00,CLR,,0.00,13.2,WeatherDisplay:10.37,2013-03-22 14:12:00,
2013-03-22 07:14:00,23.1,20.1,30.14,West,274,2.3,2.3,88,0.00,CLR,,0.00,13.2,WeatherDisplay:10.37,2013-03-22 14:14:00,
2013-03-22 07:16:00,23.1,20.1,30.14,West,270,2.3,2.3,88,0.00,FEW,,0.00,14.4,WeatherDisplay:10.37,2013-03-22 14:16:00,
2013-03-22 07:17:00,23.2,20.2,30.14,West,270,3.5,3.5,88,0.00,FEW,,0.00,16.8,WeatherDisplay:10.37,2013-03-22 14:17:00,
2013-03-22 07:18:00,23.3,20.3,30.14,West,270,2.3,2.3,88,0.00,FEW,,0.00,16.8,WeatherDisplay:10.37,2013-03-22 14:18:00,
2013-03-22 07:20:00,23.4,20.4,30.14,West,270,2.3,2.3,88,0.00,SCT,,0.00,19.2,WeatherDisplay:10.37,2013-03-22 14:20:00,
2013-03-22 07:21:00,23.4,20.1,30.14,West,270,2.3,0.0,87,0.00,SCT,,0.00,21.6,WeatherDisplay:10.37,2013-03-22 14:21:00,
2013-03-22 07:22:00,23.4,20.1,30.14,West,270,2.3,0.0,87,0.00,SCT,,0.00,21.6,WeatherDisplay:10.37,2013-03-22 14:22:00,
2013-03-22 07:23:00,23.5,20.2,30.14,West,270,1.2,1.2,87,0.00,SCT,,0.00,22.8,WeatherDisplay:10.37,2013-03-22 14:23:00,
2013-03-22 07:25:00,23.5,20.2,30.14,West,270,2.3,2.3,87,0.00,SCT,,0.00,22.8,WeatherDisplay:10.37,2013-03-22 14:25:00,
2013-03-22 07:27:00,23.6,20.3,30.15,West,270,1.2,1.2,87,0.00,SCT,,0.00,25.2,WeatherDisplay:10.37,2013-03-22 14:27:00,
2013-03-22 07:28:00,23.7,20.4,30.15,West,270,1.2,1.2,87,0.00,SCT,,0.00,25.2,WeatherDisplay:10.37,2013-03-22 14:28:00,
2013-03-22 07:32:00,23.7,20.4,30.15,West,270,0.0,0.0,87,0.00,BKN,,0.00,25.2,WeatherDisplay:10.37,2013-03-22 14:32:00,
2013-03-22 07:33:00,23.7,20.4,30.15,West,270,0.0,0.0,87,0.00,BKN,,0.00,25.2,WeatherDisplay:10.37,2013-03-22 14:33:00,
2013-03-22 07:37:00,23.9,20.3,30.15,West,263,5.0,5.0,86,0.00,SCT,,0.00,42.0,WeatherDisplay:10.37,2013-03-22 14:37:00,
2013-03-22 07:38:00,24.1,20.2,30.15,West,271,6.9,6.9,85,0.00,SCT,,0.00,44.4,WeatherDisplay:10.37,2013-03-22 14:38:00,
2013-03-22 07:42:00,24.8,20.7,30.15,West,267,6.9,6.9,84,0.00,FEW,,0.00,56.4,WeatherDisplay:10.37,2013-03-22 14:42:00,
2013-03-22 07:43:00,24.9,20.5,30.15,West,269,7.0,7.0,83,0.00,FEW,,0.00,64.8,WeatherDisplay:10.37,2013-03-22 14:43:00,
2013-03-22 07:47:00,25.0,20.3,30.15,West,275,3.5,3.5,82,0.00,CLR,,0.00,80.4,WeatherDisplay:10.37,2013-03-22 14:47:00,
2013-03-22 07:48:00,25.1,20.4,30.15,West,275,3.5,3.5,82,0.00,CLR,,0.00,80.4,WeatherDisplay:10.37,2013-03-22 14:48:00,
2013-03-22 07:49:00,25.1,20.4,30.15,West,275,3.5,3.5,82,0.00,CLR,,0.00,82.8,WeatherDisplay:10.37,2013-03-22 14:49:00,
2013-03-22 07:52:00,25.1,20.1,30.15,West,280,3.5,3.5,81,0.00,CLR,,0.00,97.2,WeatherDisplay:10.37,2013-03-22 14:52:00,
2013-03-22 07:53:00,25.1,20.1,30.15,West,280,3.5,3.5,81,0.00,CLR,,0.00,100.8,WeatherDisplay:10.37,2013-03-22 14:53:00,
2013-03-22 07:54:00,25.1,20.1,30.15,West,280,3.5,3.5,81,0.00,CLR,,0.00,103.2,WeatherDisplay:10.37,2013-03-22 14:54:00,
2013-03-22 07:58:00,25.3,20.3,30.15,West,280,2.3,0.0,81,0.00,CLR,,0.00,122.4,WeatherDisplay:10.37,2013-03-22 14:58:00,
2013-03-22 07:59:00,25.3,20.3,30.16,West,280,1.2,0.0,81,0.00,CLR,,0.00,126.0,WeatherDisplay:10.37,2013-03-22 14:59:00,
2013-03-22 08:00:00,25.3,20.3,30.16,West,280,0.0,0.0,81,0.00,CLR,,0.00,133.2,WeatherDisplay:10.37,2013-03-22 15:00:00,
2013-03-22 08:03:00,25.4,20.1,30.16,NW,306,2.3,0.0,80,0.00,CLR,,0.00,144.0,WeatherDisplay:10.37,2013-03-22 15:03:00,
2013-03-22 08:04:00,25.5,20.2,30.16,WNW,299,2.0,2.0,80,0.00,CLR,,0.00,152.4,WeatherDisplay:10.37,2013-03-22 15:04:00,
2013-03-22 08:05:00,25.6,20.3,30.16,WNW,286,3.5,3.5,80,0.00,CLR,,0.00,153.6,WeatherDisplay:10.37,2013-03-22 15:05:00,
2013-03-22 08:08:00,25.8,20.5,30.16,WNW,286,0.0,0.0,80,0.00,CLR,,0.00,164.4,WeatherDisplay:10.37,2013-03-22 15:08:00,
2013-03-22 08:09:00,25.8,20.5,30.16,WNW,286,1.2,0.0,80,0.00,CLR,,0.00,170.4,WeatherDisplay:10.37,2013-03-22 15:09:00,
2013-03-22 08:10:00,25.9,20.6,30.16,North,355,1.2,1.2,80,0.00,CLR,,0.00,175.2,WeatherDisplay:10.37,2013-03-22 15:10:00,
2013-03-22 08:13:00,26.1,20.8,30.16,NNE,17,3.5,3.5,80,0.00,CLR,,0.00,187.2,WeatherDisplay:10.37,2013-03-22 15:13:00,
2013-03-22 08:14:00,26.1,20.8,30.16,NNE,17,1.2,1.2,80,0.00,CLR,,0.00,192.0,WeatherDisplay:10.37,2013-03-22 15:14:00,
2013-03-22 08:15:00,26.2,20.9,30.16,NNE,17,1.2,1.2,80,0.00,CLR,,0.00,200.4,WeatherDisplay:10.37,2013-03-22 15:15:00,
2013-03-22 08:18:00,26.4,21.1,30.16,ESE,104,2.3,2.3,80,0.00,CLR,,0.00,214.8,WeatherDisplay:10.37,2013-03-22 15:18:00,
2013-03-22 08:19:00,26.4,21.1,30.16,ESE,107,2.3,2.3,80,0.00,CLR,,0.00,214.8,WeatherDisplay:10.37,2013-03-22 15:19:00,
2013-03-22 08:21:00,26.5,21.2,30.16,ESE,108,2.3,2.3,80,0.00,CLR,,0.00,223.2,WeatherDisplay:10.37,2013-03-22 15:21:00,
2013-03-22 08:23:00,26.6,21.3,30.16,ESE,103,0.0,0.0,80,0.00,CLR,,0.00,240.0,WeatherDisplay:10.37,2013-03-22 15:23:00,
2013-03-22 08:24:00,26.6,21.0,30.16,East,99,1.2,1.2,79,0.00,CLR,,0.00,240.0,WeatherDisplay:10.37,2013-03-22 15:24:00,
2013-03-22 08:26:00,26.7,21.1,30.16,East,101,2.3,2.3,79,0.00,CLR,,0.00,253.2,WeatherDisplay:10.37,2013-03-22 15:26:00,
2013-03-22 08:28:00,26.9,21.3,30.16,East,101,0.0,0.0,79,0.00,CLR,,0.00,265.2,WeatherDisplay:10.37,2013-03-22 15:28:00,
2013-03-22 08:29:00,26.9,21.0,30.16,ESE,102,0.0,0.0,78,0.00,CLR,,0.00,270.0,WeatherDisplay:10.37,2013-03-22 15:29:00,
2013-03-22 08:31:00,26.9,20.7,30.15,ESE,102,0.0,0.0,77,0.00,CLR,,0.00,276.0,WeatherDisplay:10.37,2013-03-22 15:31:00,
2013-03-22 08:34:00,27.0,20.7,30.15,SE,146,1.2,1.2,77,0.00,CLR,,0.00,289.2,WeatherDisplay:10.37,2013-03-22 15:34:00,
2013-03-22 08:35:00,27.0,20.7,30.15,SE,146,2.3,0.0,77,0.00,CLR,,0.00,292.8,WeatherDisplay:10.37,2013-03-22 15:35:00,
2013-03-22 08:37:00,27.1,20.8,30.15,SSE,147,1.2,1.2,77,0.00,CLR,,0.00,300.0,WeatherDisplay:10.37,2013-03-22 15:37:00,
2013-03-22 08:39:00,27.3,20.7,30.16,SSE,157,1.2,1.2,76,0.00,CLR,,0.00,308.4,WeatherDisplay:10.37,2013-03-22 15:39:00,
2013-03-22 08:40:00,27.3,20.7,30.16,SSE,165,1.2,1.2,76,0.00,CLR,,0.00,312.0,WeatherDisplay:10.37,2013-03-22 15:40:00,
2013-03-22 08:42:00,27.4,20.8,30.16,West,263,3.0,3.0,76,0.00,CLR,,0.00,318.0,WeatherDisplay:10.37,2013-03-22 15:42:00,
2013-03-22 08:44:00,27.7,20.5,30.16,WNW,282,6.9,6.9,74,0.00,CLR,,0.00,325.2,WeatherDisplay:10.37,2013-03-22 15:44:00,
2013-03-22 08:45:00,27.8,20.3,30.16,WNW,295,8.0,8.0,73,0.00,CLR,,0.00,326.4,WeatherDisplay:10.37,2013-03-22 15:45:00,
2013-03-22 08:46:00,27.9,20.4,30.15,WNW,302,9.2,9.2,73,0.00,CLR,,0.00,331.2,WeatherDisplay:10.37,2013-03-22 15:46:00,
2013-03-22 08:47:00,28.0,20.5,30.16,West,273,5.8,5.8,73,0.00,CLR,,0.00,331.2,WeatherDisplay:10.37,2013-03-22 15:47:00,
2013-03-22 08:49:00,28.3,20.4,30.16,NW,304,8.1,8.1,72,0.00,CLR,,0.00,334.8,WeatherDisplay:10.37,2013-03-22 15:49:00,
2013-03-22 08:50:00,28.4,20.5,30.16,WNW,285,4.6,4.6,72,0.00,CLR,,0.00,337.2,WeatherDisplay:10.37,2013-03-22 15:50:00,
2013-03-22 08:51:00,28.5,20.6,30.16,West,271,8.1,8.1,72,0.00,CLR,,0.00,339.6,WeatherDisplay:10.37,2013-03-22 15:51:00,
2013-03-22 08:52:00,28.7,20.5,30.16,West,269,11.5,11.5,71,0.00,CLR,,0.00,344.4,WeatherDisplay:10.37,2013-03-22 15:52:00,
2013-03-22 08:54:00,28.8,20.6,30.16,WNW,282,8.0,8.0,71,0.00,CLR,,0.00,350.4,WeatherDisplay:10.37,2013-03-22 15:54:00,
2013-03-22 08:55:00,28.8,20.2,30.16,WNW,296,10.4,10.4,70,0.00,CLR,,0.00,354.0,WeatherDisplay:10.37,2013-03-22 15:55:00,
2013-03-22 08:56:00,28.9,20.3,30.16,West,277,8.1,8.1,70,0.00,CLR,,0.00,356.4,WeatherDisplay:10.37,2013-03-22 15:56:00,
2013-03-22 08:58:00,29.0,20.4,30.16,WNW,285,10.0,10.0,70,0.00,CLR,,0.00,362.4,WeatherDisplay:10.37,2013-03-22 15:58:00,
2013-03-22 09:00:00,29.1,19.8,30.16,West,268,10.4,10.4,68,0.00,CLR,,0.00,373.2,WeatherDisplay:10.37,2013-03-22 16:00:00,
2013-03-22 09:01:00,29.2,19.9,30.16,WNW,301,10.4,10.4,68,0.00,CLR,,0.00,373.2,WeatherDisplay:10.37,2013-03-22 16:01:00,
2013-03-22 09:03:00,29.4,20.1,30.16,West,275,10.4,10.4,68,0.00,CLR,,0.00,384.0,WeatherDisplay:10.37,2013-03-22 16:03:00,
2013-03-22 09:05:00,29.6,20.0,30.15,West,272,12.7,12.7,67,0.00,CLR,,0.00,394.8,WeatherDisplay:10.37,2013-03-22 16:05:00,
2013-03-22 09:06:00,29.6,19.6,30.15,WNW,300,12.7,12.7,66,0.00,CLR,,0.00,394.8,WeatherDisplay:10.37,2013-03-22 16:06:00,
2013-03-22 09:07:00,29.7,20.1,30.15,West,263,12.7,12.7,67,0.00,CLR,,0.00,400.8,WeatherDisplay:10.37,2013-03-22 16:07:00,
2013-03-22 09:08:00,29.7,20.1,30.16,West,266,9.2,9.2,67,0.00,CLR,,0.00,403.2,WeatherDisplay:10.37,2013-03-22 16:08:00,
2013-03-22 09:10:00,29.8,19.8,30.16,WNW,298,11.5,11.5,66,0.00,CLR,,0.00,409.2,WeatherDisplay:10.37,2013-03-22 16:10:00,
2013-03-22 09:12:00,29.9,19.6,30.16,West,273,11.5,11.5,65,0.00,CLR,,0.00,417.6,WeatherDisplay:10.37,2013-03-22 16:12:00,
2013-03-22 09:14:00,30.1,19.7,30.16,West,259,11.5,11.5,65,0.00,CLR,,0.00,426.0,WeatherDisplay:10.37,2013-03-22 16:14:00,
2013-03-22 09:15:00,30.3,19.9,30.16,West,271,9.2,9.2,65,0.00,CLR,,0.00,432.0,WeatherDisplay:10.37,2013-03-22 16:15:00,
2013-03-22 09:17:00,30.3,19.6,30.16,WSW,257,12.7,12.7,64,0.00,CLR,,0.00,439.2,WeatherDisplay:10.37,2013-03-22 16:17:00,
2013-03-22 09:19:00,30.3,19.6,30.16,West,281,11.5,11.5,64,0.00,CLR,,0.00,445.2,WeatherDisplay:10.37,2013-03-22 16:19:00,
2013-03-22 09:21:00,30.5,19.8,30.16,WNW,285,10.4,10.4,64,0.00,CLR,,0.00,448.8,WeatherDisplay:10.37,2013-03-22 16:21:00,
2013-03-22 09:22:00,30.7,19.6,30.16,West,281,11.5,11.5,63,0.00,CLR,,0.00,456.0,WeatherDisplay:10.37,2013-03-22 16:22:00,
2013-03-22 09:23:00,30.7,19.6,30.16,WNW,286,11.5,11.5,63,0.00,CLR,,0.00,456.0,WeatherDisplay:10.37,2013-03-22 16:23:00,
2013-03-22 09:24:00,30.8,19.7,30.16,West,273,11.5,11.5,63,0.00,CLR,,0.00,457.2,WeatherDisplay:10.37,2013-03-22 16:24:00,
2013-03-22 09:26:00,30.8,19.3,30.16,NW,311,11.5,11.5,62,0.00,CLR,,0.00,470.4,WeatherDisplay:10.37,2013-03-22 16:26:00,
2013-03-22 09:27:00,31.0,19.5,30.16,West,274,9.2,9.2,62,0.00,CLR,,0.00,475.2,WeatherDisplay:10.37,2013-03-22 16:27:00,
2013-03-22 09:28:00,31.0,19.5,30.16,West,281,9.2,9.2,62,0.00,CLR,,0.00,475.2,WeatherDisplay:10.37,2013-03-22 16:28:00,
2013-03-22 09:29:00,31.2,19.3,30.16,WNW,287,13.8,13.8,61,0.00,CLR,,0.00,478.8,WeatherDisplay:10.37,2013-03-22 16:29:00,
2013-03-22 09:31:00,31.1,18.8,30.16,WNW,301,12.7,12.7,60,0.00,CLR,,0.00,487.2,WeatherDisplay:10.37,2013-03-22 16:31:00,
2013-03-22 09:32:00,31.1,18.8,30.16,West,268,14.0,14.0,60,0.00,CLR,,0.00,493.2,WeatherDisplay:10.37,2013-03-22 16:32:00,
2013-03-22 09:33:00,31.1,18.8,30.16,West,266,14.0,14.0,60,0.00,CLR,,0.00,493.2,WeatherDisplay:10.37,2013-03-22 16:33:00,
2013-03-22 09:34:00,31.0,18.7,30.16,WSW,257,13.8,13.8,60,0.00,CLR,,0.00,498.0,WeatherDisplay:10.37,2013-03-22 16:34:00,
2013-03-22 09:37:00,31.1,18.8,30.16,West,277,12.7,12.7,60,0.00,CLR,,0.00,504.0,WeatherDisplay:10.37,2013-03-22 16:37:00,
2013-03-22 09:38:00,31.3,19.0,30.16,West,268,12.7,12.7,60,0.00,CLR,,0.00,508.8,WeatherDisplay:10.37,2013-03-22 16:38:00,
2013-03-22 09:39:00,31.4,19.5,30.16,West,270,10.4,10.4,61,0.00,CLR,,0.00,517.2,WeatherDisplay:10.37,2013-03-22 16:39:00,
2013-03-22 09:42:00,31.6,19.7,30.16,West,262,13.0,13.0,61,0.00,CLR,,0.00,526.8,WeatherDisplay:10.37,2013-03-22 16:42:00,
2013-03-22 09:44:00,31.7,19.4,30.16,West,267,15.0,15.0,60,0.00,CLR,,0.00,537.6,WeatherDisplay:10.37,2013-03-22 16:44:00,
2013-03-22 09:45:00,31.6,18.9,30.16,WNW,290,13.8,13.8,59,0.00,CLR,,0.00,544.8,WeatherDisplay:10.37,2013-03-22 16:45:00,
2013-03-22 09:47:00,31.7,19.0,30.16,WNW,290,12.7,12.7,59,0.00,CLR,,0.00,559.2,WeatherDisplay:10.37,2013-03-22 16:47:00,
2013-03-22 09:49:00,32.0,19.3,30.16,West,279,10.4,10.4,59,0.00,CLR,,0.00,476.4,WeatherDisplay:10.37,2013-03-22 16:49:00,
2013-03-22 09:50:00,32.1,19.8,30.16,WNW,299,10.4,10.4,60,0.00,CLR,,0.00,504.0,WeatherDisplay:10.37,2013-03-22 16:50:00,
2013-03-22 09:53:00,32.3,19.2,30.16,NW,312,11.5,11.5,58,0.00,CLR,,0.00,573.6,WeatherDisplay:10.37,2013-03-22 16:53:00,
2013-03-22 09:54:00,32.4,19.3,30.16,SW,225,13.8,13.8,58,0.00,CLR,,0.00,582.0,WeatherDisplay:10.37,2013-03-22 16:54:00,
2013-03-22 09:55:00,32.3,18.8,30.16,West,271,13.8,13.8,57,0.00,CLR,,0.00,584.4,WeatherDisplay:10.37,2013-03-22 16:55:00,
2013-03-22 09:58:00,32.4,19.3,30.16,WNW,294,11.5,11.5,58,0.00,CLR,,0.00,561.6,WeatherDisplay:10.37,2013-03-22 16:58:00,
2013-03-22 09:59:00,32.4,18.8,30.16,NW,306,12.7,12.7,57,0.00,CLR,,0.00,561.6,WeatherDisplay:10.37,2013-03-22 16:59:00,
2013-03-22 10:02:00,32.5,18.5,30.16,West,264,11.5,11.5,56,0.00,CLR,,0.00,614.4,WeatherDisplay:10.37,2013-03-22 17:02:00,
2013-03-22 10:04:00,32.6,18.6,30.16,West,270,16.1,16.1,56,0.00,CLR,,0.00,620.4,WeatherDisplay:10.37,2013-03-22 17:04:00,
2013-03-22 10:08:00,33.0,18.6,30.17,West,274,11.5,11.5,55,0.00,CLR,,0.00,426.0,WeatherDisplay:10.37,2013-03-22 17:08:00,
2013-03-22 10:09:00,33.0,18.6,30.17,NW,326,10.4,10.4,55,0.00,CLR,,0.00,426.0,WeatherDisplay:10.37,2013-03-22 17:09:00,
2013-03-22 10:10:00,33.0,18.6,30.17,NW,307,10.4,10.4,55,0.00,CLR,,0.00,592.8,WeatherDisplay:10.37,2013-03-22 17:10:00,
2013-03-22 10:13:00,33.6,19.1,30.17,NW,315,8.1,8.1,55,0.00,CLR,,0.00,649.2,WeatherDisplay:10.37,2013-03-22 17:13:00,
2013-03-22 10:14:00,33.7,18.8,30.17,WNW,303,8.1,8.1,54,0.00,CLR,,0.00,643.2,WeatherDisplay:10.37,2013-03-22 17:14:00,
2013-03-22 10:15:00,33.9,19.0,30.17,West,281,8.1,8.1,54,0.00,CLR,,0.00,648.0,WeatherDisplay:10.37,2013-03-22 17:15:00,
2013-03-22 10:18:00,33.7,17.9,30.17,West,276,12.7,12.7,52,0.00,CLR,,0.00,662.4,WeatherDisplay:10.37,2013-03-22 17:18:00,
2013-03-22 10:19:00,33.6,17.8,30.17,West,272,11.5,11.5,52,0.00,CLR,,0.00,675.6,WeatherDisplay:10.37,2013-03-22 17:19:00,
2013-03-22 10:20:00,33.7,17.9,30.17,WNW,296,11.5,11.5,52,0.00,CLR,,0.00,675.6,WeatherDisplay:10.37,2013-03-22 17:20:00,
2013-03-22 10:24:00,33.7,17.5,30.17,West,274,16.1,16.1,51,0.00,CLR,,0.00,670.8,WeatherDisplay:10.37,2013-03-22 17:24:00,
2013-03-22 10:25:00,33.6,17.4,30.17,WNW,284,13.8,13.8,51,0.00,CLR,,0.00,681.6,WeatherDisplay:10.37,2013-03-22 17:25:00,
2013-03-22 10:29:00,34.0,17.7,30.17,West,267,12.7,12.7,51,0.00,CLR,,0.00,726.0,WeatherDisplay:10.37,2013-03-22 17:29:00,
2013-03-22 10:30:00,34.1,17.8,30.17,WSW,254,12.7,12.7,51,0.00,CLR,,0.00,712.8,WeatherDisplay:10.37,2013-03-22 17:30:00,
2013-03-22 10:32:00,33.7,17.5,30.17,NW,307,13.8,13.8,51,0.00,CLR,,0.00,709.2,WeatherDisplay:10.37,2013-03-22 17:32:00,
2013-03-22 10:35:00,33.7,17.9,30.17,NW,306,11.0,11.0,52,0.00,CLR,,0.00,723.6,WeatherDisplay:10.37,2013-03-22 17:35:00,
2013-03-22 10:36:00,33.7,17.0,30.17,WNW,284,11.5,11.5,50,0.00,CLR,,0.00,732.0,WeatherDisplay:10.37,2013-03-22 17:36:00,
2013-03-22 10:37:00,33.9,17.2,30.17,WNW,282,12.7,12.7,50,0.00,CLR,,0.00,776.4,WeatherDisplay:10.37,2013-03-22 17:37:00,
2013-03-22 10:40:00,34.5,17.3,30.17,WNW,296,11.5,11.5,49,0.00,CLR,,0.00,868.8,WeatherDisplay:10.37,2013-03-22 17:40:00,
2013-03-22 10:41:00,34.5,17.3,30.18,NW,308,11.5,11.5,49,0.00,CLR,,0.00,885.6,WeatherDisplay:10.37,2013-03-22 17:41:00,
2013-03-22 10:42:00,34.6,17.8,30.18,WNW,299,18.4,18.4,50,0.00,CLR,,0.00,885.6,WeatherDisplay:10.37,2013-03-22 17:42:00,
2013-03-22 10:45:00,34.2,17.5,30.17,WNW,286,13.8,13.8,50,0.00,CLR,,0.00,901.2,WeatherDisplay:10.37,2013-03-22 17:45:00,
2013-03-22 10:46:00,34.5,17.8,30.17,West,277,13.8,13.8,50,0.00,CLR,,0.00,909.6,WeatherDisplay:10.37,2013-03-22 17:46:00,
2013-03-22 10:47:00,34.7,17.9,30.17,West,267,9.2,9.2,50,0.00,CLR,,0.00,966.0,WeatherDisplay:10.37,2013-03-22 17:47:00,
2013-03-22 10:51:00,34.9,17.2,30.18,West,264,13.8,13.8,48,0.00,CLR,,0.00,328.8,WeatherDisplay:10.37,2013-03-22 17:51:00,
2013-03-22 10:52:00,34.7,17.0,30.17,WNW,286,13.8,13.8,48,0.00,CLR,,0.00,328.8,WeatherDisplay:10.37,2013-03-22 17:52:00,
2013-03-22 10:53:00,34.7,17.5,30.17,WNW,303,13.8,13.8,49,0.00,CLR,,0.00,328.8,WeatherDisplay:10.37,2013-03-22 17:53:00,
2013-03-22 10:56:00,34.2,16.0,30.17,WNW,302,17.3,17.3,47,0.00,FEW,,0.00,198.0,WeatherDisplay:10.37,2013-03-22 17:56:00,
2013-03-22 10:57:00,33.8,16.2,30.17,West,275,15.0,15.0,48,0.00,SCT,,0.00,195.6,WeatherDisplay:10.37,2013-03-22 17:57:00,
2013-03-22 10:58:00,33.7,16.1,30.17,West,281,15.0,15.0,48,0.00,SCT,,0.00,195.6,WeatherDisplay:10.37,2013-03-22 17:58:00,
2013-03-22 11:01:00,34.8,17.1,30.17,WSW,257,11.5,11.5,48,0.00,SCT,,0.00,904.8,WeatherDisplay:10.37,2013-03-22 18:01:00,
2013-03-22 11:02:00,34.9,17.2,30.17,West,274,11.5,11.5,48,0.00,SCT,,0.00,904.8,WeatherDisplay:10.37,2013-03-22 18:02:00,
2013-03-22 11:03:00,35.0,16.3,30.17,WNW,294,11.5,11.5,46,0.00,SCT,,0.00,824.4,WeatherDisplay:10.37,2013-03-22 18:03:00,
2013-03-22 11:07:00,35.2,16.5,30.17,NW,306,12.0,12.7,46,0.00,CLR,,0.00,949.2,WeatherDisplay:10.37,2013-03-22 18:07:00,
2013-03-22 11:08:00,34.7,15.5,30.17,NW,320,13.8,13.8,45,0.00,CLR,,0.00,951.6,WeatherDisplay:10.37,2013-03-22 18:08:00,
2013-03-22 11:12:00,35.4,16.1,30.17,WNW,290,16.1,16.1,45,0.00,CLR,,0.00,907.2,WeatherDisplay:10.37,2013-03-22 18:12:00,
2013-03-22 11:13:00,35.8,16.5,30.17,West,267,11.5,11.5,45,0.00,CLR,,0.00,1023.6,WeatherDisplay:10.37,2013-03-22 18:13:00,
2013-03-22 11:16:00,36.5,16.1,30.18,WNW,286,13.8,13.8,43,0.00,CLR,,0.00,1057.2,WeatherDisplay:10.37,2013-03-22 18:16:00,
2013-03-22 11:17:00,35.9,15.5,30.18,WNW,300,13.8,13.8,43,0.00,CLR,,0.00,1057.2,WeatherDisplay:10.37,2013-03-22 18:17:00,
2013-03-22 11:18:00,35.5,15.7,30.18,WNW,301,13.8,13.8,44,0.00,CLR,,0.00,1057.2,WeatherDisplay:10.37,2013-03-22 18:18:00,
2013-03-22 11:19:00,35.3,15.0,30.18,WNW,288,13.8,13.8,43,0.00,CLR,,0.00,1057.2,WeatherDisplay:10.37,2013-03-22 18:19:00,
2013-03-22 11:21:00,34.9,15.7,30.17,WNW,286,13.8,13.8,45,0.00,CLR,,0.00,439.2,WeatherDisplay:10.37,2013-03-22 18:21:00,
2013-03-22 11:23:00,34.7,16.0,30.17,West,279,11.5,11.5,46,0.00,CLR,,0.00,406.8,WeatherDisplay:10.37,2013-03-22 18:23:00,
2013-03-22 11:24:00,34.6,15.9,30.17,WNW,286,12.7,12.7,46,0.00,CLR,,0.00,403.2,WeatherDisplay:10.37,2013-03-22 18:24:00,
2013-03-22 11:27:00,35.2,17.0,30.17,NW,305,12.7,12.7,47,0.00,CLR,,0.00,907.2,WeatherDisplay:10.37,2013-03-22 18:27:00,
2013-03-22 11:28:00,35.4,16.6,30.17,West,281,12.7,12.7,46,0.00,CLR,,0.00,818.4,WeatherDisplay:10.37,2013-03-22 18:28:00,
2013-03-22 11:29:00,35.8,17.5,30.17,WNW,285,11.5,11.5,47,0.00,CLR,,0.00,757.2,WeatherDisplay:10.37,2013-03-22 18:29:00,
2013-03-22 11:32:00,36.1,15.7,30.17,WNW,291,17.3,17.3,43,0.00,CLR,,0.00,757.2,WeatherDisplay:10.37,2013-03-22 18:32:00,
2013-03-22 11:33:00,35.8,15.5,30.17,WNW,297,17.3,17.3,43,0.00,CLR,,0.00,726.0,WeatherDisplay:10.37,2013-03-22 18:33:00,
2013-03-22 11:34:00,35.7,14.8,30.17,WNW,296,17.3,17.3,42,0.00,CLR,,0.00,726.0,WeatherDisplay:10.37,2013-03-22 18:34:00,
2013-03-22 11:37:00,35.1,14.3,30.17,WNW,296,10.4,10.4,42,0.00,CLR,,0.00,913.2,WeatherDisplay:10.37,2013-03-22 18:37:00,
2013-03-22 11:39:00,35.4,15.6,30.17,West,275,9.2,9.2,44,0.00,CLR,,0.00,885.6,WeatherDisplay:10.37,2013-03-22 18:39:00,
2013-03-22 11:40:00,36.1,16.8,30.16,West,275,8.0,8.0,45,0.00,CLR,,0.00,885.6,WeatherDisplay:10.37,2013-03-22 18:40:00,
2013-03-22 11:43:00,36.7,16.8,30.17,West,271,12.7,12.7,44,0.00,CLR,,0.00,554.4,WeatherDisplay:10.37,2013-03-22 18:43:00,
2013-03-22 11:44:00,36.3,15.4,30.17,West,272,16.1,16.1,42,0.00,CLR,,0.00,746.4,WeatherDisplay:10.37,2013-03-22 18:44:00,
2013-03-22 11:47:00,36.1,15.2,30.17,WNW,283,11.5,11.5,42,0.00,CLR,,0.00,957.6,WeatherDisplay:10.37,2013-03-22 18:47:00,
2013-03-22 11:48:00,35.9,15.0,30.17,West,265,12.7,12.7,42,0.00,CLR,,0.00,919.2,WeatherDisplay:10.37,2013-03-22 18:48:00,
2013-03-22 11:50:00,36.4,16.0,30.17,West,268,11.5,11.5,43,0.00,CLR,,0.00,765.6,WeatherDisplay:10.37,2013-03-22 18:50:00,
2013-03-22 11:52:00,36.2,15.3,30.17,West,259,11.5,11.5,42,0.00,CLR,,0.00,913.2,WeatherDisplay:10.37,2013-03-22 18:52:00,
2013-03-22 11:53:00,36.3,15.9,30.17,WSW,246,11.5,11.5,43,0.00,CLR,,0.00,856.8,WeatherDisplay:10.37,2013-03-22 18:53:00,
2013-03-22 11:55:00,36.3,15.9,30.17,West,272,13.8,13.8,43,0.00,CLR,,0.00,782.4,WeatherDisplay:10.37,2013-03-22 18:55:00,
2013-03-22 11:58:00,37.3,17.4,30.17,West,269,14.0,14.0,44,0.00,CLR,,0.00,985.2,WeatherDisplay:10.37,2013-03-22 18:58:00,
2013-03-22 12:00:00,37.6,16.5,30.17,NW,314,13.8,13.8,42,0.00,CLR,,0.00,996.0,WeatherDisplay:10.37,2013-03-22 19:00:00,
2013-03-22 12:03:00,37.2,15.6,30.16,WNW,290,11.5,11.5,41,0.00,CLR,,0.00,1016.4,WeatherDisplay:10.37,2013-03-22 19:03:00,
2013-03-22 12:05:00,37.1,15.0,30.16,WNW,299,11.5,11.5,40,0.00,CLR,,0.00,250.8,WeatherDisplay:10.37,2013-03-22 19:05:00,
2013-03-22 12:06:00,37.0,15.5,30.16,West,273,12.7,12.7,41,0.00,CLR,,0.00,250.8,WeatherDisplay:10.37,2013-03-22 19:06:00,
2013-03-22 12:08:00,37.2,15.6,30.16,WNW,291,14.0,14.0,41,0.00,CLR,,0.00,250.8,WeatherDisplay:10.37,2013-03-22 19:08:00,
2013-03-22 12:10:00,36.8,14.1,30.16,WNW,292,11.5,11.5,39,0.00,FEW,,0.00,1023.6,WeatherDisplay:10.37,2013-03-22 19:10:00,
2013-03-22 12:12:00,37.4,15.8,30.16,West,263,11.5,11.5,41,0.00,FEW,,0.00,1054.8,WeatherDisplay:10.37,2013-03-22 19:12:00,
2013-03-22 12:13:00,38.0,15.8,30.16,West,280,12.7,12.7,40,0.00,FEW,,0.00,1054.8,WeatherDisplay:10.37,2013-03-22 19:13:00,
2013-03-22 12:14:00,38.1,15.3,30.16,West,264,12.7,12.7,39,0.00,FEW,,0.00,1054.8,WeatherDisplay:10.37,2013-03-22 19:14:00,
2013-03-22 12:15:00,38.1,15.3,30.16,West,280,11.5,11.5,39,0.00,FEW,,0.00,784.8,WeatherDisplay:10.37,2013-03-22 19:15:00,
2013-03-22 12:17:00,38.2,15.4,30.16,West,277,17.3,17.3,39,0.00,CLR,,0.00,1158.0,WeatherDisplay:10.37,2013-03-22 19:17:00,
2013-03-22 12:18:00,38.4,16.1,30.16,West,277,14.0,14.0,40,0.00,CLR,,0.00,1135.2,WeatherDisplay:10.37,2013-03-22 19:18:00,
2013-03-22 12:19:00,38.4,16.1,30.16,WNW,284,14.0,14.0,40,0.00,CLR,,0.00,1135.2,WeatherDisplay:10.37,2013-03-22 19:19:00,
2013-03-22 12:21:00,38.7,15.8,30.16,WNW,288,12.7,12.7,39,0.00,CLR,,0.00,1141.2,WeatherDisplay:10.37,2013-03-22 19:21:00,
2013-03-22 12:22:00,38.7,15.8,30.17,WNW,295,12.0,12.0,39,0.00,CLR,,0.00,342.0,WeatherDisplay:10.37,2013-03-22 19:22:00,
2013-03-22 12:24:00,38.2,15.4,30.16,WNW,299,13.8,13.8,39,0.00,CLR,,0.00,344.4,WeatherDisplay:10.37,2013-03-22 19:24:00,
2013-03-22 12:27:00,37.9,16.8,30.16,West,265,11.5,11.5,42,0.00,FEW,,0.00,398.4,WeatherDisplay:10.37,2013-03-22 19:27:00,
2013-03-22 12:29:00,38.3,16.6,30.16,WSW,250,17.0,17.0,41,0.00,SCT,,0.00,398.4,WeatherDisplay:10.37,2013-03-22 19:29:00,
2013-03-22 12:32:00,37.2,15.6,30.16,WNW,302,12.7,12.7,41,0.00,SCT,,0.00,637.2,WeatherDisplay:10.37,2013-03-22 19:32:00,
2013-03-22 12:34:00,37.1,15.5,30.16,West,269,12.7,12.7,41,0.00,SCT,,0.00,379.2,WeatherDisplay:10.37,2013-03-22 19:34:00,
2013-03-22 12:37:00,36.2,15.8,30.16,WSW,250,12.7,12.7,43,0.00,SCT,,0.00,405.6,WeatherDisplay:10.37,2013-03-22 19:37:00,
2013-03-22 12:39:00,35.9,16.6,30.16,West,265,11.5,11.5,45,0.00,SCT,,0.00,709.2,WeatherDisplay:10.37,2013-03-22 19:39:00,
2013-03-22 12:40:00,35.9,16.6,30.16,WSW,251,11.5,11.5,45,0.00,SCT,,0.00,709.2,WeatherDisplay:10.37,2013-03-22 19:40:00,
2013-03-22 12:43:00,35.9,16.1,30.16,West,271,13.8,13.8,44,0.00,SCT,,0.00,453.6,WeatherDisplay:10.37,2013-03-22 19:43:00,
2013-03-22 12:45:00,36.5,16.6,30.16,West,273,11.5,11.5,44,0.00,SCT,,0.00,567.6,WeatherDisplay:10.37,2013-03-22 19:45:00,
2013-03-22 12:48:00,37.1,16.6,30.16,West,261,10.0,10.0,43,0.00,FEW,,0.00,567.6,WeatherDisplay:10.37,2013-03-22 19:48:00,
2013-03-22 12:50:00,37.5,15.9,30.16,WNW,296,14.0,14.0,41,0.00,FEW,,0.00,829.2,WeatherDisplay:10.37,2013-03-22 19:50:00,
2013-03-22 12:54:00,37.3,15.2,30.16,NW,316,12.7,12.7,40,0.00,FEW,,0.00,573.6,WeatherDisplay:10.37,2013-03-22 19:54:00,
2013-03-22 12:55:00,37.1,15.5,30.16,West,281,10.4,10.4,41,0.00,CLR,,0.00,576.0,WeatherDisplay:10.37,2013-03-22 19:55:00,
2013-03-22 12:59:00,37.3,15.2,30.16,NW,309,16.1,16.1,40,0.00,CLR,,0.00,1154.4,WeatherDisplay:10.37,2013-03-22 19:59:00,
2013-03-22 13:00:00,38.1,15.9,30.16,West,269,19.6,19.6,40,0.00,CLR,,0.00,1130.4,WeatherDisplay:10.37,2013-03-22 20:00:00,
2013-03-22 13:04:00,38.6,15.1,30.16,SW,229,16.1,16.1,38,0.00,CLR,,0.00,345.6,WeatherDisplay:10.37,2013-03-22 20:04:00,
2013-03-22 13:05:00,38.3,14.9,30.16,WSW,244,18.4,18.4,38,0.00,CLR,,0.00,345.6,WeatherDisplay:10.37,2013-03-22 20:05:00,
2013-03-22 13:06:00,38.0,14.6,30.16,West,261,18.4,18.4,38,0.00,CLR,,0.00,300.0,WeatherDisplay:10.37,2013-03-22 20:06:00,
2013-03-22 13:09:00,37.3,15.7,30.16,West,259,13.0,13.0,41,0.00,CLR,,0.00,1233.6,WeatherDisplay:10.37,2013-03-22 20:09:00,
2013-03-22 13:10:00,37.3,15.7,30.16,West,270,17.0,17.0,41,0.00,CLR,,0.00,1233.6,WeatherDisplay:10.37,2013-03-22 20:10:00,
2013-03-22 13:11:00,37.3,15.7,30.16,West,277,15.0,15.0,41,0.00,CLR,,0.00,440.4,WeatherDisplay:10.37,2013-03-22 20:11:00,
2013-03-22 13:15:00,36.8,14.7,30.16,WNW,282,8.1,8.1,40,0.00,SCT,,0.00,493.2,WeatherDisplay:10.37,2013-03-22 20:15:00,
2013-03-22 13:16:00,37.0,15.5,30.16,West,260,10.0,10.0,41,0.00,SCT,,0.00,540.0,WeatherDisplay:10.37,2013-03-22 20:16:00,
2013-03-22 13:17:00,36.9,14.8,30.16,West,269,17.3,17.3,40,0.00,SCT,,0.00,540.0,WeatherDisplay:10.37,2013-03-22 20:17:00,
2013-03-22 13:20:00,37.0,16.0,30.16,WSW,242,17.3,17.3,42,0.00,SCT,,0.00,398.4,WeatherDisplay:10.37,2013-03-22 20:20:00,
2013-03-22 13:21:00,36.8,16.4,30.17,WSW,254,17.3,17.3,43,0.00,SCT,,0.00,362.4,WeatherDisplay:10.37,2013-03-22 20:21:00,
2013-03-22 13:22:00,36.8,16.4,30.17,WSW,245,17.3,17.3,43,0.00,SCT,,0.00,362.4,WeatherDisplay:10.37,2013-03-22 20:22:00,
2013-03-22 13:25:00,36.5,16.6,30.16,West,279,15.0,15.0,44,0.00,SCT,,0.00,398.4,WeatherDisplay:10.37,2013-03-22 20:25:00,
2013-03-22 13:27:00,36.4,16.5,30.16,WNW,286,12.7,12.7,44,0.00,SCT,,0.00,548.4,WeatherDisplay:10.37,2013-03-22 20:27:00,
2013-03-22 13:31:00,36.7,15.2,30.16,WNW,299,11.5,11.5,41,0.00,SCT,,0.00,868.8,WeatherDisplay:10.37,2013-03-22 20:31:00,
2013-03-22 13:32:00,37.3,15.7,30.16,WSW,255,11.5,11.5,41,0.00,SCT,,0.00,868.8,WeatherDisplay:10.37,2013-03-22 20:32:00,
2013-03-22 13:36:00,38.0,14.6,30.16,West,277,14.0,14.0,38,0.00,FEW,,0.00,598.8,WeatherDisplay:10.37,2013-03-22 20:36:00,
2013-03-22 13:37:00,37.9,14.5,30.16,West,273,15.0,15.0,38,0.00,FEW,,0.00,537.6,WeatherDisplay:10.37,2013-03-22 20:37:00,
2013-03-22 13:42:00,38.2,14.2,30.16,WNW,300,17.3,17.3,37,0.00,FEW,,0.00,456.0,WeatherDisplay:10.37,2013-03-22 20:42:00,
2013-03-22 13:47:00,37.7,14.9,30.16,WSW,254,13.8,13.8,39,0.00,FEW,,0.00,394.8,WeatherDisplay:10.37,2013-03-22 20:47:00,
2013-03-22 13:48:00,37.5,15.3,30.16,West,277,13.8,13.8,40,0.00,FEW,,0.00,390.0,WeatherDisplay:10.37,2013-03-22 20:48:00,
2013-03-22 13:52:00,37.0,14.3,30.16,WNW,301,11.5,11.5,39,0.00,FEW,,0.00,1189.2,WeatherDisplay:10.37,2013-03-22 20:52:00,
2013-03-22 13:53:00,37.3,14.6,30.16,NW,307,11.5,11.5,39,0.00,FEW,,0.00,1219.2,WeatherDisplay:10.37,2013-03-22 20:53:00,
2013-03-22 13:57:00,38.4,16.1,30.16,West,269,8.1,8.1,40,0.00,FEW,,0.00,790.8,WeatherDisplay:10.37,2013-03-22 20:57:00,
2013-03-22 13:58:00,38.8,15.9,30.16,West,273,16.0,16.0,39,0.00,FEW,,0.00,790.8,WeatherDisplay:10.37,2013-03-22 20:58:00,
2013-03-22 13:59:00,38.7,15.2,30.16,WNW,282,18.4,18.4,38,0.00,CLR,,0.00,370.8,WeatherDisplay:10.37,2013-03-22 20:59:00,
2013-03-22 14:02:00,37.9,15.7,30.16,NW,310,16.1,16.1,40,0.00,CLR,,0.00,378.0,WeatherDisplay:10.37,2013-03-22 21:02:00,
2013-03-22 14:03:00,37.6,15.4,30.16,WNW,296,16.1,16.1,40,0.00,CLR,,0.00,378.0,WeatherDisplay:10.37,2013-03-22 21:03:00,
2013-03-22 14:04:00,37.7,15.5,30.16,WNW,291,15.0,15.0,40,0.00,FEW,,0.00,1118.4,WeatherDisplay:10.37,2013-03-22 21:04:00,
2013-03-22 14:07:00,39.3,17.0,30.16,WNW,294,15.0,15.0,40,0.00,FEW,,0.00,1183.2,WeatherDisplay:10.37,2013-03-22 21:07:00,
2013-03-22 14:08:00,39.5,17.1,30.16,West,278,11.5,11.5,40,0.00,FEW,,0.00,1183.2,WeatherDisplay:10.37,2013-03-22 21:08:00,
2013-03-22 14:09:00,39.8,16.8,30.16,NW,310,15.0,15.0,39,0.00,FEW,,0.00,1183.2,WeatherDisplay:10.37,2013-03-22 21:09:00,
2013-03-22 14:13:00,39.2,14.4,30.16,WNW,286,18.4,18.4,36,0.00,CLR,,0.00,1183.2,WeatherDisplay:10.37,2013-03-22 21:13:00,
2013-03-22 14:14:00,39.1,14.4,30.16,West,279,16.1,16.1,36,0.00,CLR,,0.00,1074.0,WeatherDisplay:10.37,2013-03-22 21:14:00,
2013-03-22 14:18:00,40.9,16.6,30.15,NW,309,11.5,11.5,37,0.00,CLR,,0.00,1086.0,WeatherDisplay:10.37,2013-03-22 21:18:00,
2013-03-22 14:19:00,41.4,16.4,30.15,WNW,292,9.0,9.0,36,0.00,CLR,,0.00,1086.0,WeatherDisplay:10.37,2013-03-22 21:19:00,
2013-03-22 14:23:00,39.3,13.9,30.15,WNW,287,12.7,12.7,35,0.00,CLR,,0.00,510.0,WeatherDisplay:10.37,2013-03-22 21:23:00,
2013-03-22 14:24:00,38.7,14.6,30.15,NW,317,15.0,15.0,37,0.00,CLR,,0.00,570.0,WeatherDisplay:10.37,2013-03-22 21:24:00,
2013-03-22 14:28:00,39.2,16.3,30.15,WNW,292,13.8,13.8,39,0.00,CLR,,0.00,1124.4,WeatherDisplay:10.37,2013-03-22 21:28:00,
2013-03-22 14:29:00,39.4,16.5,30.15,WNW,284,13.8,13.8,39,0.00,CLR,,0.00,1138.8,WeatherDisplay:10.37,2013-03-22 21:29:00,
2013-03-22 14:33:00,40.7,17.0,30.15,NW,315,13.0,13.0,38,0.00,CLR,,0.00,1057.2,WeatherDisplay:10.37,2013-03-22 21:33:00,
2013-03-22 14:34:00,41.0,17.3,30.15,NW,309,12.0,12.0,38,0.00,CLR,,0.00,1052.4,WeatherDisplay:10.37,2013-03-22 21:34:00,
2013-03-22 14:38:00,40.5,16.9,30.15,WNW,293,13.8,13.8,38,0.00,CLR,,0.00,982.8,WeatherDisplay:10.37,2013-03-22 21:38:00,
2013-03-22 14:39:00,40.5,16.9,30.15,WNW,286,13.8,13.8,38,0.00,CLR,,0.00,982.8,WeatherDisplay:10.37,2013-03-22 21:39:00,
2013-03-22 14:43:00,39.7,14.2,30.15,WNW,301,12.0,12.0,35,0.00,CLR,,0.00,337.2,WeatherDisplay:10.37,2013-03-22 21:43:00,
2013-03-22 14:44:00,39.2,13.8,30.15,West,271,15.0,15.0,35,0.00,CLR,,0.00,337.2,WeatherDisplay:10.37,2013-03-22 21:44:00,
2013-03-22 14:48:00,38.9,16.0,30.15,WNW,286,11.5,11.5,39,0.00,FEW,,0.00,1032.0,WeatherDisplay:10.37,2013-03-22 21:48:00,
2013-03-22 14:49:00,39.6,16.0,30.15,WNW,299,16.1,16.1,38,0.00,FEW,,0.00,1058.4,WeatherDisplay:10.37,2013-03-22 21:49:00,
2013-03-22 14:50:00,39.7,16.1,30.15,WNW,295,16.1,16.1,38,0.00,FEW,,0.00,1058.4,WeatherDisplay:10.37,2013-03-22 21:50:00,
2013-03-22 14:53:00,39.5,16.0,30.15,West,271,15.0,15.0,38,0.00,CLR,,0.00,790.8,WeatherDisplay:10.37,2013-03-22 21:53:00,
2013-03-22 14:54:00,39.4,16.5,30.15,NW,317,15.0,15.0,39,0.00,CLR,,0.00,790.8,WeatherDisplay:10.37,2013-03-22 21:54:00,
2013-03-22 14:55:00,39.5,16.6,30.15,NW,323,15.0,15.0,39,0.00,CLR,,0.00,768.0,WeatherDisplay:10.37,2013-03-22 21:55:00,
2013-03-22 14:58:00,39.0,16.1,30.15,NW,306,13.8,13.8,39,0.00,CLR,,0.00,230.4,WeatherDisplay:10.37,2013-03-22 21:58:00,
2013-03-22 14:59:00,38.7,16.4,30.15,WNW,294,10.4,10.4,40,0.00,CLR,,0.00,242.4,WeatherDisplay:10.37,2013-03-22 21:59:00,
2013-03-22 15:00:00,38.7,16.4,30.15,West,281,13.0,13.0,40,0.00,CLR,,0.00,276.0,WeatherDisplay:10.37,2013-03-22 22:00:00,
2013-03-22 15:03:00,38.2,14.2,30.15,NW,311,20.7,20.7,37,0.00,FEW,,0.00,379.2,WeatherDisplay:10.37,2013-03-22 22:03:00,
2013-03-22 15:05:00,38.0,14.0,30.15,NW,319,16.1,16.1,37,0.00,SCT,,0.00,337.2,WeatherDisplay:10.37,2013-03-22 22:05:00,
2013-03-22 15:08:00,37.8,15.0,30.15,WNW,298,13.0,13.0,39,0.00,SCT,,0.00,344.4,WeatherDisplay:10.37,2013-03-22 22:08:00,
2013-03-22 15:10:00,37.5,14.8,30.15,WNW,300,11.5,11.5,39,0.00,SCT,,0.00,358.8,WeatherDisplay:10.37,2013-03-22 22:10:00,
2013-03-22 15:11:00,37.5,14.8,30.15,West,281,11.5,11.5,39,0.00,SCT,,0.00,364.8,WeatherDisplay:10.37,2013-03-22 22:11:00,
2013-03-22 15:12:00,37.5,14.2,30.15,WNW,292,12.7,12.7,38,0.00,SCT,,0.00,375.6,WeatherDisplay:10.37,2013-03-22 22:12:00,
2013-03-22 15:13:00,37.5,14.2,30.15,WNW,298,13.8,13.8,38,0.00,SCT,,0.00,445.2,WeatherDisplay:10.37,2013-03-22 22:13:00,
2013-03-22 15:16:00,37.8,14.4,30.15,West,274,12.7,12.7,38,0.00,SCT,,0.00,445.2,WeatherDisplay:10.37,2013-03-22 22:16:00,
2013-03-22 15:17:00,38.1,14.1,30.15,West,281,16.0,16.0,37,0.00,SCT,,0.00,512.4,WeatherDisplay:10.37,2013-03-22 22:17:00,
2013-03-22 15:18:00,38.5,13.8,30.15,West,274,19.6,19.6,36,0.00,SCT,,0.00,414.0,WeatherDisplay:10.37,2013-03-22 22:18:00,
2013-03-22 15:22:00,38.7,12.7,30.15,WNW,290,16.1,16.1,34,0.00,SCT,,0.00,414.0,WeatherDisplay:10.37,2013-03-22 22:22:00,
2013-03-22 15:24:00,38.5,13.8,30.15,NNW,327,11.5,11.5,36,0.00,SCT,,0.00,398.4,WeatherDisplay:10.37,2013-03-22 22:24:00,
2013-03-22 15:27:00,38.2,14.2,30.15,NW,315,11.5,11.5,37,0.00,SCT,,0.00,337.2,WeatherDisplay:10.37,2013-03-22 22:27:00,
2013-03-22 15:28:00,38.1,14.1,30.15,WNW,290,16.1,16.1,37,0.00,SCT,,0.00,333.6,WeatherDisplay:10.37,2013-03-22 22:28:00,
2013-03-22 15:30:00,37.8,13.8,30.15,NW,307,17.3,17.3,37,0.00,SCT,,0.00,369.6,WeatherDisplay:10.37,2013-03-22 22:30:00,
2013-03-22 15:32:00,37.9,13.9,30.15,NW,317,13.0,13.0,37,0.00,SCT,,0.00,322.8,WeatherDisplay:10.37,2013-03-22 22:32:00,
2013-03-22 15:33:00,37.9,13.3,30.15,NW,313,15.0,15.0,36,0.00,SCT,,0.00,322.8,WeatherDisplay:10.37,2013-03-22 22:33:00,
2013-03-22 15:35:00,37.5,12.9,30.16,NW,304,19.6,19.6,36,0.00,SCT,,0.00,283.2,WeatherDisplay:10.37,2013-03-22 22:35:00,
2013-03-22 15:38:00,37.4,12.8,30.16,NW,309,16.0,16.0,36,0.00,SCT,,0.00,493.2,WeatherDisplay:10.37,2013-03-22 22:38:00,
2013-03-22 15:39:00,37.5,12.9,30.16,NW,306,16.1,16.1,36,0.00,SCT,,0.00,375.6,WeatherDisplay:10.37,2013-03-22 22:39:00,
2013-03-22 15:40:00,37.7,12.5,30.16,NW,310,20.0,20.0,35,0.00,SCT,,0.00,960.0,WeatherDisplay:10.37,2013-03-22 22:40:00,
2013-03-22 15:43:00,39.2,12.5,30.16,WNW,295,17.0,17.0,33,0.00,FEW,,0.00,919.2,WeatherDisplay:10.37,2013-03-22 22:43:00,
2013-03-22 15:44:00,39.6,12.1,30.16,West,280,17.3,17.3,32,0.00,FEW,,0.00,934.8,WeatherDisplay:10.37,2013-03-22 22:44:00,
2013-03-22 15:45:00,39.3,11.9,30.16,WNW,294,19.6,19.6,32,0.00,CLR,,0.00,820.8,WeatherDisplay:10.37,2013-03-22 22:45:00,
2013-03-22 15:48:00,39.2,13.1,30.16,NW,306,12.7,12.7,34,0.00,CLR,,0.00,398.4,WeatherDisplay:10.37,2013-03-22 22:48:00,
2013-03-22 15:49:00,39.2,14.4,30.16,WNW,292,18.4,18.4,36,0.00,CLR,,0.00,938.4,WeatherDisplay:10.37,2013-03-22 22:49:00,
2013-03-22 15:52:00,40.0,15.8,30.16,NW,310,11.5,11.5,37,0.00,CLR,,0.00,924.0,WeatherDisplay:10.37,2013-03-22 22:52:00,
2013-03-22 15:53:00,40.2,15.3,30.16,West,271,17.3,17.3,36,0.00,CLR,,0.00,816.0,WeatherDisplay:10.37,2013-03-22 22:53:00,
2013-03-22 15:54:00,40.1,14.6,30.16,West,274,18.4,18.4,35,0.00,CLR,,0.00,823.2,WeatherDisplay:10.37,2013-03-22 22:54:00,
2013-03-22 15:57:00,40.4,14.9,30.16,West,262,11.5,11.5,35,0.00,CLR,,0.00,927.6,WeatherDisplay:10.37,2013-03-22 22:57:00,
2013-03-22 15:58:00,40.6,15.7,30.16,WNW,300,16.1,16.1,36,0.00,CLR,,0.00,882.0,WeatherDisplay:10.37,2013-03-22 22:58:00,
2013-03-22 15:59:00,40.7,15.1,30.16,WNW,289,16.1,16.1,35,0.00,CLR,,0.00,810.0,WeatherDisplay:10.37,2013-03-22 22:59:00,
2013-03-22 16:02:00,40.7,15.8,30.16,WNW,296,16.1,16.1,36,0.00,CLR,,0.00,879.6,WeatherDisplay:10.37,2013-03-22 23:02:00,
2013-03-22 16:03:00,40.7,15.8,30.16,WNW,284,11.5,11.5,36,0.00,CLR,,0.00,812.4,WeatherDisplay:10.37,2013-03-22 23:03:00,
2013-03-22 16:04:00,40.7,15.8,30.16,WNW,292,12.7,12.7,36,0.00,CLR,,0.00,858.0,WeatherDisplay:10.37,2013-03-22 23:04:00,
2013-03-22 16:08:00,40.7,14.5,30.16,NW,322,15.0,15.0,34,0.00,CLR,,0.00,820.8,WeatherDisplay:10.37,2013-03-22 23:08:00,
2013-03-22 16:09:00,40.7,14.5,30.16,WNW,288,12.7,12.7,34,0.00,CLR,,0.00,810.0,WeatherDisplay:10.37,2013-03-22 23:09:00,
2013-03-22 16:10:00,40.9,14.6,30.16,NW,312,15.0,15.0,34,0.00,CLR,,0.00,807.6,WeatherDisplay:10.37,2013-03-22 23:10:00,
2013-03-22 16:13:00,40.0,13.2,30.16,West,272,18.4,18.4,33,0.00,CLR,,0.00,780.0,WeatherDisplay:10.37,2013-03-22 23:13:00,
2013-03-22 16:14:00,40.0,13.8,30.16,WNW,296,18.4,18.4,34,0.00,CLR,,0.00,780.0,WeatherDisplay:10.37,2013-03-22 23:14:00,
2013-03-22 16:15:00,40.3,14.8,30.16,WNW,287,13.0,13.0,35,0.00,CLR,,0.00,757.2,WeatherDisplay:10.37,2013-03-22 23:15:00,
2013-03-22 16:18:00,40.6,15.0,30.16,WNW,284,15.0,15.0,35,0.00,CLR,,0.00,700.8,WeatherDisplay:10.37,2013-03-22 23:18:00,
2013-03-22 16:19:00,40.7,15.1,30.16,West,271,15.0,15.0,35,0.00,CLR,,0.00,700.8,WeatherDisplay:10.37,2013-03-22 23:19:00,
2013-03-22 16:20:00,40.9,14.6,30.16,WNW,295,16.1,16.1,34,0.00,CLR,,0.00,685.2,WeatherDisplay:10.37,2013-03-22 23:20:00,
2013-03-22 16:21:00,40.7,14.5,30.16,WNW,296,16.1,16.1,34,0.00,CLR,,0.00,685.2,WeatherDisplay:10.37,2013-03-22 23:21:00,
2013-03-22 16:23:00,40.6,14.4,30.16,WNW,294,16.1,16.1,34,0.00,CLR,,0.00,675.6,WeatherDisplay:10.37,2013-03-22 23:23:00,
2013-03-22 16:24:00,40.6,14.4,30.16,WNW,288,16.1,16.1,34,0.00,CLR,,0.00,675.6,WeatherDisplay:10.37,2013-03-22 23:24:00,
2013-03-22 16:25:00,40.7,15.1,30.16,NW,306,17.3,17.3,35,0.00,CLR,,0.00,645.6,WeatherDisplay:10.37,2013-03-22 23:25:00,
2013-03-22 16:26:00,40.3,14.1,30.16,West,281,18.4,18.4,34,0.00,CLR,,0.00,607.2,WeatherDisplay:10.37,2013-03-22 23:26:00,
2013-03-22 16:29:00,39.9,14.4,30.16,WNW,295,15.0,15.0,35,0.00,CLR,,0.00,160.8,WeatherDisplay:10.37,2013-03-22 23:29:00,
2013-03-22 16:30:00,39.3,12.6,30.16,West,281,19.6,19.6,33,0.00,CLR,,0.00,162.0,WeatherDisplay:10.37,2013-03-22 23:30:00,
2013-03-22 16:32:00,38.5,12.5,30.16,WNW,301,17.3,17.3,34,0.00,CLR,,0.00,153.6,WeatherDisplay:10.37,2013-03-22 23:32:00,
2013-03-22 16:34:00,38.1,12.8,30.16,West,277,15.0,15.0,35,0.00,SCT,,0.00,160.8,WeatherDisplay:10.37,2013-03-22 23:34:00,
2013-03-22 16:35:00,38.0,13.4,30.16,West,267,15.0,15.0,36,0.00,SCT,,0.00,153.6,WeatherDisplay:10.37,2013-03-22 23:35:00,
2013-03-22 16:37:00,37.5,13.6,30.16,West,275,12.7,12.7,37,0.00,BKN,,0.00,160.8,WeatherDisplay:10.37,2013-03-22 23:37:00,
2013-03-22 16:39:00,37.7,13.1,30.16,WNW,282,11.5,11.5,36,0.00,BKN,,0.00,160.8,WeatherDisplay:10.37,2013-03-22 23:39:00,
2013-03-22 16:40:00,37.8,13.2,30.16,WSW,244,11.5,11.5,36,0.00,BKN,,0.00,152.4,WeatherDisplay:10.37,2013-03-22 23:40:00,
2013-03-22 16:42:00,37.8,13.8,30.16,NW,321,14.0,14.0,37,0.00,BKN,,0.00,578.4,WeatherDisplay:10.37,2013-03-22 23:42:00,
2013-03-22 16:44:00,38.3,14.3,30.16,NNW,327,11.5,11.5,37,0.00,BKN,,0.00,152.4,WeatherDisplay:10.37,2013-03-22 23:44:00,
2013-03-22 16:45:00,38.4,14.4,30.16,WNW,290,11.5,11.5,37,0.00,BKN,,0.00,164.4,WeatherDisplay:10.37,2013-03-22 23:45:00,
2013-03-22 16:47:00,38.9,15.4,30.16,WNW,284,11.5,11.5,38,0.00,SCT,,0.00,562.8,WeatherDisplay:10.37,2013-03-22 23:47:00,
2013-03-22 16:50:00,39.3,15.8,30.16,WSW,245,10.4,10.4,38,0.00,SCT,,0.00,556.8,WeatherDisplay:10.37,2013-03-22 23:50:00,
2013-03-22 16:51:00,39.5,16.0,30.16,West,278,14.0,14.0,38,0.00,FEW,,0.00,559.2,WeatherDisplay:10.37,2013-03-22 23:51:00,
2013-03-22 16:53:00,39.2,15.7,30.16,West,274,13.8,13.8,38,0.00,CLR,,0.00,573.6,WeatherDisplay:10.37,2013-03-22 23:53:00,
2013-03-22 16:55:00,39.2,15.7,30.17,WNW,292,13.8,13.8,38,0.00,CLR,,0.00,187.2,WeatherDisplay:10.37,2013-03-22 23:55:00,
2013-03-22 16:56:00,38.5,15.1,30.17,WNW,286,15.0,15.0,38,0.00,CLR,,0.00,217.2,WeatherDisplay:10.37,2013-03-22 23:56:00,
2013-03-22 16:57:00,38.4,15.6,30.17,WNW,301,15.0,15.0,39,0.00,CLR,,0.00,217.2,WeatherDisplay:10.37,2013-03-22 23:57:00,
2013-03-22 16:58:00,38.3,15.5,30.17,WNW,301,15.0,15.0,39,0.00,CLR,,0.00,573.6,WeatherDisplay:10.37,2013-03-22 23:58:00,
2013-03-22 17:00:00,38.7,15.8,30.17,WNW,301,11.5,11.5,39,0.00,CLR,,0.00,571.2,WeatherDisplay:10.37,2013-03-23 00:00:00,
2013-03-22 17:01:00,39.4,17.0,30.16,WNW,285,10.4,10.4,40,0.00,CLR,,0.00,550.8,WeatherDisplay:10.37,2013-03-23 00:01:00,
2013-03-22 17:02:00,39.9,16.9,30.16,West,265,8.1,8.1,39,0.00,CLR,,0.00,546.0,WeatherDisplay:10.37,2013-03-23 00:02:00,
2013-03-22 17:03:00,40.0,17.0,30.16,West,270,10.4,10.4,39,0.00,CLR,,0.00,546.0,WeatherDisplay:10.37,2013-03-23 00:03:00,
2013-03-22 17:05:00,39.7,16.7,30.16,WNW,286,10.4,10.4,39,0.00,CLR,,0.00,177.6,WeatherDisplay:10.37,2013-03-23 00:05:00,
2013-03-22 17:07:00,39.5,17.1,30.17,West,265,11.5,11.5,40,0.00,CLR,,0.00,508.8,WeatherDisplay:10.37,2013-03-23 00:07:00,
2013-03-22 17:08:00,39.7,17.3,30.17,West,270,10.4,10.4,40,0.00,CLR,,0.00,512.4,WeatherDisplay:10.37,2013-03-23 00:08:00,
2013-03-22 17:10:00,39.6,17.2,30.17,West,269,10.4,10.4,40,0.00,CLR,,0.00,525.6,WeatherDisplay:10.37,2013-03-23 00:10:00,
2013-03-22 17:13:00,39.4,17.6,30.17,West,267,8.0,8.0,41,0.00,CLR,,0.00,544.8,WeatherDisplay:10.37,2013-03-23 00:13:00,
2013-03-22 17:15:00,39.8,18.0,30.17,West,262,10.4,10.4,41,0.00,CLR,,0.00,537.6,WeatherDisplay:10.37,2013-03-23 00:15:00,
2013-03-22 17:18:00,39.1,17.4,30.17,NW,324,15.0,15.0,41,0.00,CLR,,0.00,381.6,WeatherDisplay:10.37,2013-03-23 00:18:00,
2013-03-22 17:19:00,38.6,16.9,30.17,NW,306,15.0,15.0,41,0.00,CLR,,0.00,272.4,WeatherDisplay:10.37,2013-03-23 00:19:00,
2013-03-22 17:21:00,38.4,16.7,30.17,WNW,287,10.4,10.4,41,0.00,CLR,,0.00,284.4,WeatherDisplay:10.37,2013-03-23 00:21:00,
2013-03-22 17:23:00,37.9,16.3,30.17,West,275,17.3,17.3,41,0.00,CLR,,0.00,439.2,WeatherDisplay:10.37,2013-03-23 00:23:00,
2013-03-22 17:24:00,38.1,16.4,30.17,West,263,14.0,14.0,41,0.00,CLR,,0.00,447.6,WeatherDisplay:10.37,2013-03-23 00:24:00,
2013-03-22 17:27:00,37.9,16.3,30.17,West,272,13.8,13.8,41,0.00,CLR,,0.00,540.0,WeatherDisplay:10.37,2013-03-23 00:27:00,
2013-03-22 17:28:00,38.0,16.4,30.17,WSW,244,12.7,12.7,41,0.00,CLR,,0.00,537.6,WeatherDisplay:10.37,2013-03-23 00:28:00,
2013-03-22 17:30:00,38.2,16.0,30.17,WSW,258,12.7,12.7,40,0.00,CLR,,0.00,512.4,WeatherDisplay:10.37,2013-03-23 00:30:00,
2013-03-22 17:32:00,38.4,16.7,30.17,West,259,13.0,13.0,41,0.00,CLR,,0.00,464.4,WeatherDisplay:10.37,2013-03-23 00:32:00,
2013-03-22 17:33:00,38.3,17.2,30.17,WNW,284,15.0,15.0,42,0.00,CLR,,0.00,442.8,WeatherDisplay:10.37,2013-03-23 00:33:00,
2013-03-22 17:34:00,38.3,17.7,30.17,SW,228,15.0,15.0,43,0.00,CLR,,0.00,423.6,WeatherDisplay:10.37,2013-03-23 00:34:00,
2013-03-22 17:35:00,38.4,18.9,30.17,West,275,11.5,11.5,45,0.00,CLR,,0.00,406.8,WeatherDisplay:10.37,2013-03-23 00:35:00,
2013-03-22 17:37:00,37.8,18.8,30.18,WNW,284,15.0,15.0,46,0.00,CLR,,0.00,267.6,WeatherDisplay:10.37,2013-03-23 00:37:00,
2013-03-22 17:38:00,37.7,18.8,30.18,WSW,254,15.0,15.0,46,0.00,CLR,,0.00,322.8,WeatherDisplay:10.37,2013-03-23 00:38:00,
2013-03-22 17:39:00,37.5,18.6,30.18,WNW,290,15.0,15.0,46,0.00,CLR,,0.00,248.4,WeatherDisplay:10.37,2013-03-23 00:39:00,
2013-03-22 17:41:00,37.3,18.9,30.18,WNW,288,16.1,16.1,47,0.00,CLR,,0.00,352.8,WeatherDisplay:10.37,2013-03-23 00:41:00,
2013-03-22 17:42:00,37.1,18.7,30.18,WNW,300,13.8,13.8,47,0.00,CLR,,0.00,339.6,WeatherDisplay:10.37,2013-03-23 00:42:00,
2013-03-22 17:44:00,36.9,18.5,30.18,WSW,258,15.0,15.0,47,0.00,CLR,,0.00,328.8,WeatherDisplay:10.37,2013-03-23 00:44:00,
2013-03-22 17:46:00,36.8,18.4,30.18,West,273,12.7,12.7,47,0.00,CLR,,0.00,320.4,WeatherDisplay:10.37,2013-03-23 00:46:00,
2013-03-22 17:48:00,37.0,18.6,30.18,WNW,282,11.5,11.5,47,0.00,CLR,,0.00,308.4,WeatherDisplay:10.37,2013-03-23 00:48:00,
2013-03-22 17:49:00,37.0,19.1,30.18,West,276,11.5,11.5,48,0.00,CLR,,0.00,295.2,WeatherDisplay:10.37,2013-03-23 00:49:00,
2013-03-22 17:51:00,37.3,19.4,30.18,WNW,292,8.1,8.1,48,0.00,CLR,,0.00,283.2,WeatherDisplay:10.37,2013-03-23 00:51:00,
2013-03-22 17:53:00,37.1,18.7,30.18,West,274,13.8,13.8,47,0.00,CLR,,0.00,91.2,WeatherDisplay:10.37,2013-03-23 00:53:00,
2013-03-22 17:54:00,36.9,18.5,30.18,West,261,13.8,13.8,47,0.00,CLR,,0.00,91.2,WeatherDisplay:10.37,2013-03-23 00:54:00,
2013-03-22 17:55:00,36.8,18.4,30.18,WSW,238,13.8,13.8,47,0.00,CLR,,0.00,91.2,WeatherDisplay:10.37,2013-03-23 00:55:00,
2013-03-22 17:57:00,36.4,17.6,30.18,West,264,12.7,12.7,46,0.00,CLR,,0.00,84.0,WeatherDisplay:10.37,2013-03-23 00:57:00,
2013-03-22 17:58:00,36.1,17.8,30.18,West,267,10.4,10.4,47,0.00,FEW,,0.00,84.0,WeatherDisplay:10.37,2013-03-23 00:58:00,
2013-03-22 17:59:00,36.0,17.7,30.18,West,259,9.0,9.0,47,0.00,FEW,,0.00,97.2,WeatherDisplay:10.37,2013-03-23 00:59:00,
2013-03-22 18:00:00,35.9,17.6,30.18,West,279,8.1,8.1,47,0.00,FEW,,0.00,97.2,WeatherDisplay:10.37,2013-03-23 01:00:00,
2013-03-22 18:03:00,35.9,18.1,30.18,West,271,10.4,10.4,48,0.00,SCT,,0.00,240.0,WeatherDisplay:10.37,2013-03-23 01:03:00,
2013-03-22 18:04:00,36.0,18.2,30.19,West,274,11.5,11.5,48,0.00,SCT,,0.00,238.8,WeatherDisplay:10.37,2013-03-23 01:04:00,
2013-03-22 18:05:00,36.0,18.2,30.19,West,277,11.5,11.5,48,0.00,SCT,,0.00,238.8,WeatherDisplay:10.37,2013-03-23 01:05:00,
2013-03-22 18:08:00,36.5,18.2,30.19,WNW,287,11.5,11.5,47,0.00,CLR,,0.00,225.6,WeatherDisplay:10.37,2013-03-23 01:08:00,
2013-03-22 18:10:00,36.6,18.2,30.19,West,277,12.7,12.7,47,0.00,CLR,,0.00,205.2,WeatherDisplay:10.37,2013-03-23 01:10:00,
2013-03-22 18:13:00,36.3,17.5,30.19,WNW,294,12.7,12.7,46,0.00,CLR,,0.00,133.2,WeatherDisplay:10.37,2013-03-23 01:13:00,
2013-03-22 18:15:00,36.2,17.9,30.19,NW,309,11.5,11.5,47,0.00,CLR,,0.00,78.0,WeatherDisplay:10.37,2013-03-23 01:15:00,
2013-03-22 18:18:00,36.0,17.2,30.19,NW,315,13.0,13.0,46,0.00,CLR,,0.00,88.8,WeatherDisplay:10.37,2013-03-23 01:18:00,
2013-03-22 18:20:00,35.7,16.4,30.19,NW,306,11.0,11.0,45,0.00,CLR,,0.00,156.0,WeatherDisplay:10.37,2013-03-23 01:20:00,
2013-03-22 18:23:00,35.6,16.8,30.19,WNW,285,10.4,10.4,46,0.00,CLR,,0.00,130.8,WeatherDisplay:10.37,2013-03-23 01:23:00,
2013-03-22 18:25:00,35.6,16.8,30.19,NW,311,12.7,12.7,46,0.00,CLR,,0.00,120.0,WeatherDisplay:10.37,2013-03-23 01:25:00,
2013-03-22 18:28:00,35.6,17.3,30.19,West,277,8.1,8.1,47,0.00,CLR,,0.00,109.2,WeatherDisplay:10.37,2013-03-23 01:28:00,
2013-03-22 18:29:00,35.6,17.3,30.19,West,272,8.1,8.1,47,0.00,CLR,,0.00,108.0,WeatherDisplay:10.37,2013-03-23 01:29:00,
2013-03-22 18:30:00,35.6,16.8,30.19,NW,306,11.5,11.5,46,0.00,CLR,,0.00,103.2,WeatherDisplay:10.37,2013-03-23 01:30:00,
2013-03-22 18:33:00,35.3,16.6,30.19,WNW,297,10.4,10.4,46,0.00,CLR,,0.00,91.2,WeatherDisplay:10.37,2013-03-23 01:33:00,
2013-03-22 18:34:00,35.3,16.6,30.19,WNW,300,10.4,10.4,46,0.00,CLR,,0.00,91.2,WeatherDisplay:10.37,2013-03-23 01:34:00,
2013-03-22 18:35:00,35.3,17.1,30.19,WNW,282,9.2,9.2,47,0.00,CLR,,0.00,86.4,WeatherDisplay:10.37,2013-03-23 01:35:00,
2013-03-22 18:36:00,35.3,17.1,30.19,WNW,303,8.0,8.0,47,0.00,CLR,,0.00,84.0,WeatherDisplay:10.37,2013-03-23 01:36:00,
2013-03-22 18:38:00,35.3,17.1,30.19,WNW,283,9.2,9.2,47,0.00,FEW,,0.00,63.6,WeatherDisplay:10.37,2013-03-23 01:38:00,
2013-03-22 18:39:00,35.3,17.1,30.19,NW,307,10.0,10.0,47,0.00,FEW,,0.00,63.6,WeatherDisplay:10.37,2013-03-23 01:39:00,
2013-03-22 18:41:00,35.1,16.9,30.19,West,281,10.4,10.4,47,0.00,FEW,,0.00,58.8,WeatherDisplay:10.37,2013-03-23 01:41:00,
2013-03-22 18:43:00,35.0,16.8,30.19,WNW,294,9.0,9.0,47,0.00,FEW,,0.00,55.2,WeatherDisplay:10.37,2013-03-23 01:43:00,
2013-03-22 18:44:00,34.8,16.6,30.19,West,278,11.5,11.5,47,0.00,FEW,,0.00,50.4,WeatherDisplay:10.37,2013-03-23 01:44:00,
2013-03-22 18:46:00,34.7,16.5,30.19,WNW,296,10.4,10.4,47,0.00,SCT,,0.00,48.0,WeatherDisplay:10.37,2013-03-23 01:46:00,
2013-03-22 18:48:00,34.5,16.8,30.19,WNW,294,11.5,11.5,48,0.00,SCT,,0.00,39.6,WeatherDisplay:10.37,2013-03-23 01:48:00,
2013-03-22 18:49:00,34.4,16.7,30.19,WNW,290,10.0,10.0,48,0.00,SCT,,0.00,38.4,WeatherDisplay:10.37,2013-03-23 01:49:00,
2013-03-22 18:51:00,34.2,16.5,30.19,West,270,11.5,11.5,48,0.00,SCT,,0.00,31.2,WeatherDisplay:10.37,2013-03-23 01:51:00,
2013-03-22 18:53:00,34.1,16.9,30.19,WNW,298,9.2,9.2,49,0.00,SCT,,0.00,30.0,WeatherDisplay:10.37,2013-03-23 01:53:00,
2013-03-22 18:54:00,34.1,17.4,30.19,WNW,288,6.9,6.9,50,0.00,SCT,,0.00,27.6,WeatherDisplay:10.37,2013-03-23 01:54:00,
2013-03-22 18:56:00,34.0,17.7,30.19,West,261,10.0,10.0,51,0.00,SCT,,0.00,25.2,WeatherDisplay:10.37,2013-03-23 01:56:00,
2013-03-22 18:58:00,33.8,18.0,30.19,West,271,9.2,9.2,52,0.00,SCT,,0.00,22.8,WeatherDisplay:10.37,2013-03-23 01:58:00,
2013-03-22 18:59:00,33.7,17.9,30.19,West,281,10.4,10.4,52,0.00,SCT,,0.00,21.6,WeatherDisplay:10.37,2013-03-23 01:59:00,
2013-03-22 19:00:00,33.6,18.3,30.19,West,267,10.4,10.4,53,0.00,SCT,,0.00,19.2,WeatherDisplay:10.37,2013-03-23 02:00:00,
2013-03-22 19:02:00,33.4,18.5,30.19,West,273,8.1,8.1,54,0.00,SCT,,0.00,16.8,WeatherDisplay:10.37,2013-03-23 02:02:00,
2013-03-22 19:03:00,33.3,18.4,30.19,West,277,10.4,10.4,54,0.00,SCT,,0.00,16.8,WeatherDisplay:10.37,2013-03-23 02:03:00,
2013-03-22 19:04:00,33.2,18.8,30.19,West,277,10.4,10.4,55,0.00,SCT,,0.00,14.4,WeatherDisplay:10.37,2013-03-23 02:04:00,
2013-03-22 19:05:00,33.1,18.7,30.19,West,264,9.2,9.2,55,0.00,SCT,,0.00,14.4,WeatherDisplay:10.37,2013-03-23 02:05:00,
2013-03-22 19:07:00,33.0,18.6,30.19,West,263,9.2,9.2,55,0.00,SCT,,0.00,13.2,WeatherDisplay:10.37,2013-03-23 02:07:00,
2013-03-22 19:08:00,32.8,18.4,30.19,West,265,11.5,11.5,55,0.00,SCT,,0.00,13.2,WeatherDisplay:10.37,2013-03-23 02:08:00,
2013-03-22 19:09:00,32.8,18.8,30.19,West,267,11.5,11.5,56,0.00,SCT,,0.00,10.8,WeatherDisplay:10.37,2013-03-23 02:09:00,
2013-03-22 19:10:00,32.7,18.7,30.20,WSW,252,6.9,6.9,56,0.00,SCT,,0.00,10.8,WeatherDisplay:10.37,2013-03-23 02:10:00,
2013-03-22 19:12:00,32.6,18.6,30.20,West,278,10.4,10.4,56,0.00,SCT,,0.00,8.4,WeatherDisplay:10.37,2013-03-23 02:12:00,
2013-03-22 19:14:00,32.6,18.6,30.19,WNW,282,11.5,11.5,56,0.00,FEW,,0.00,6.0,WeatherDisplay:10.37,2013-03-23 02:14:00,
2013-03-22 19:15:00,32.5,18.9,30.20,West,273,9.2,9.2,57,0.00,CLR,,0.00,6.0,WeatherDisplay:10.37,2013-03-23 02:15:00,
2013-03-22 19:17:00,32.4,18.8,30.20,WNW,300,9.2,9.2,57,0.00,CLR,,0.00,6.0,WeatherDisplay:10.37,2013-03-23 02:17:00,
2013-03-22 19:19:00,32.3,18.8,30.20,NW,304,10.4,10.4,57,0.00,CLR,,0.00,0.0,WeatherDisplay:10.37,2013-03-23 02:19:00,
2013-03-22 19:21:00,32.2,19.1,30.20,West,263,6.9,6.9,58,0.00,CLR,,0.00,0.0,WeatherDisplay:10.37,2013-03-23 02:21:00,
2013-03-22 19:22:00,32.2,19.1,30.20,WNW,301,8.1,8.1,58,0.00,CLR,,0.00,0.0,WeatherDisplay:10.37,2013-03-23 02:22:00,
2013-03-22 19:24:00,32.1,19.0,30.20,WNW,298,8.1,8.1,58,0.00,CLR,,0.00,0.0,WeatherDisplay:10.37,2013-03-23 02:24:00,
2013-03-22 19:25:00,32.0,18.9,30.20,WNW,285,8.1,8.1,58,0.00,CLR,,0.00,0.0,WeatherDisplay:10.37,2013-03-23 02:25:00,
2013-03-22 19:26:00,32.0,18.9,30.20,WNW,300,8.0,8.0,58,0.00,CLR,,0.00,0.0,WeatherDisplay:10.37,2013-03-23 02:26:00,
2013-03-22 19:27:00,31.9,18.8,30.20,WNW,291,8.1,8.1,58,0.00,CLR,,0.00,0.0,WeatherDisplay:10.37,2013-03-23 02:27:00,
2013-03-22 19:29:00,31.9,19.2,30.20,West,280,6.9,6.9,59,0.00,CLR,,0.00,0.0,WeatherDisplay:10.37,2013-03-23 02:29:00,
2013-03-22 19:30:00,31.8,19.1,30.20,WNW,300,6.9,6.9,59,0.00,CLR,,0.00,0.0,WeatherDisplay:10.37,2013-03-23 02:30:00,
2013-03-22 19:31:00,31.8,19.1,30.20,WNW,294,8.1,8.1,59,0.00,CLR,,0.00,0.0,WeatherDisplay:10.37,2013-03-23 02:31:00,
2013-03-22 19:32:00,31.7,19.0,30.20,NW,305,7.0,7.0,59,0.00,CLR,,0.00,0.0,WeatherDisplay:10.37,2013-03-23 02:32:00,
2013-03-22 19:35:00,31.7,19.4,30.20,West,269,8.1,8.1,60,0.00,CLR,,0.00,0.0,WeatherDisplay:10.37,2013-03-23 02:35:00,
2013-03-22 19:36:00,31.6,19.3,30.20,WNW,284,9.0,9.0,60,0.00,CLR,,0.00,0.0,WeatherDisplay:10.37,2013-03-23 02:36:00,
2013-03-22 19:37:00,31.6,19.3,30.20,West,275,9.2,9.2,60,0.00,CLR,,0.00,0.0,WeatherDisplay:10.37,2013-03-23 02:37:00,
2013-03-22 19:40:00,31.5,19.2,30.20,WNW,298,6.9,6.9,60,0.00,CLR,,0.00,0.0,WeatherDisplay:10.37,2013-03-23 02:40:00,
2013-03-22 19:41:00,31.4,19.5,30.20,West,279,5.0,5.0,61,0.00,CLR,,0.00,0.0,WeatherDisplay:10.37,2013-03-23 02:41:00,
2013-03-22 19:43:00,31.3,19.4,30.20,West,279,4.6,4.6,61,0.00,CLR,,0.00,0.0,WeatherDisplay:10.37,2013-03-23 02:43:00,
2013-03-22 19:45:00,31.1,19.6,30.20,WNW,291,4.6,4.6,62,0.00,CLR,,0.00,0.0,WeatherDisplay:10.37,2013-03-23 02:45:00,
2013-03-22 19:46:00,31.1,19.6,30.20,WNW,297,6.9,6.9,62,0.00,CLR,,0.00,0.0,WeatherDisplay:10.37,2013-03-23 02:46:00,
2013-03-22 19:47:00,31.1,19.6,30.20,WNW,302,6.9,6.9,62,0.00,CLR,,0.00,0.0,WeatherDisplay:10.37,2013-03-23 02:47:00,
2013-03-22 19:48:00,31.0,19.5,30.20,WNW,285,5.8,5.8,62,0.00,CLR,,0.00,0.0,WeatherDisplay:10.37,2013-03-23 02:48:00,
2013-03-22 19:51:00,31.0,19.9,30.21,West,279,8.1,8.1,63,0.00,CLR,,0.00,0.0,WeatherDisplay:10.37,2013-03-23 02:51:00,
2013-03-22 19:52:00,31.0,19.9,30.21,West,273,6.9,6.9,63,0.00,CLR,,0.00,0.0,WeatherDisplay:10.37,2013-03-23 02:52:00,
2013-03-22 19:53:00,30.9,19.8,30.21,WNW,286,6.9,6.9,63,0.00,CLR,,0.00,0.0,WeatherDisplay:10.37,2013-03-23 02:53:00,
2013-03-22 19:57:00,30.7,20.0,30.20,WNW,298,5.0,5.0,64,0.00,CLR,,0.00,0.0,WeatherDisplay:10.37,2013-03-23 02:57:00,
2013-03-22 19:58:00,30.6,19.9,30.20,NW,304,6.9,6.9,64,0.00,CLR,,0.00,0.0,WeatherDisplay:10.37,2013-03-23 02:58:00,
2013-03-22 20:02:00,30.5,20.1,30.21,WNW,294,3.5,3.5,65,0.00,CLR,,0.00,0.0,WeatherDisplay:10.37,2013-03-23 03:02:00,
2013-03-22 20:03:00,30.5,20.1,30.21,WNW,293,3.5,3.5,65,0.00,CLR,,0.00,0.0,WeatherDisplay:10.37,2013-03-23 03:03:00,
2013-03-22 20:04:00,30.5,20.1,30.21,WNW,301,7.0,7.0,65,0.00,CLR,,0.00,0.0,WeatherDisplay:10.37,2013-03-23 03:04:00,
2013-03-22 20:07:00,30.4,20.0,30.20,WNW,292,3.5,3.5,65,0.00,CLR,,0.00,0.0,WeatherDisplay:10.37,2013-03-23 03:07:00,
2013-03-22 20:08:00,30.4,20.4,30.20,WNW,287,5.8,5.8,66,0.00,CLR,,0.00,0.0,WeatherDisplay:10.37,2013-03-23 03:08:00,
2013-03-22 20:09:00,30.4,20.4,30.20,WNW,297,5.8,5.8,66,0.00,CLR,,0.00,0.0,WeatherDisplay:10.37,2013-03-23 03:09:00,
2013-03-22 20:12:00,30.4,20.4,30.21,WNW,295,5.0,5.0,66,0.00,CLR,,0.00,0.0,WeatherDisplay:10.37,2013-03-23 03:12:00,
2013-03-22 20:13:00,30.4,20.4,30.21,WNW,298,4.6,4.6,66,0.00,CLR,,0.00,0.0,WeatherDisplay:10.37,2013-03-23 03:13:00,
2013-03-22 20:14:00,30.4,20.4,30.21,WNW,298,5.8,5.8,66,0.00,CLR,,0.00,0.0,WeatherDisplay:10.37,2013-03-23 03:14:00,
2013-03-22 20:17:00,30.3,20.3,30.21,WNW,296,3.5,3.5,66,0.00,CLR,,0.00,0.0,WeatherDisplay:10.37,2013-03-23 03:17:00,
2013-03-22 20:18:00,30.3,20.3,30.21,WNW,296,3.5,3.5,66,0.00,CLR,,0.00,0.0,WeatherDisplay:10.37,2013-03-23 03:18:00,
2013-03-22 20:19:00,30.3,20.6,30.21,WNW,296,2.3,2.3,67,0.00,CLR,,0.00,0.0,WeatherDisplay:10.37,2013-03-23 03:19:00,
2013-03-22 20:20:00,30.2,20.6,30.21,WNW,296,1.2,1.2,67,0.00,CLR,,0.00,0.0,WeatherDisplay:10.37,2013-03-23 03:20:00,
2013-03-22 20:22:00,30.2,20.6,30.21,WNW,296,1.2,1.2,67,0.00,CLR,,0.00,0.0,WeatherDisplay:10.37,2013-03-23 03:22:00,
2013-03-22 20:23:00,30.1,20.5,30.21,WNW,296,1.2,1.2,67,0.00,CLR,,0.00,0.0,WeatherDisplay:10.37,2013-03-23 03:23:00,
2013-03-22 20:24:00,30.1,20.5,30.21,WNW,296,1.2,1.2,67,0.00,CLR,,0.00,0.0,WeatherDisplay:10.37,2013-03-23 03:24:00,
2013-03-22 20:25:00,30.1,20.5,30.21,WNW,296,1.2,1.2,67,0.00,CLR,,0.00,0.0,WeatherDisplay:10.37,2013-03-23 03:25:00,
2013-03-22 20:28:00,30.0,20.7,30.21,WNW,296,2.3,2.3,68,0.00,CLR,,0.00,0.0,WeatherDisplay:10.37,2013-03-23 03:28:00,
2013-03-22 20:29:00,30.0,20.7,30.21,WNW,296,2.3,2.3,68,0.00,CLR,,0.00,0.0,WeatherDisplay:10.37,2013-03-23 03:29:00,
2013-03-22 20:30:00,30.0,20.7,30.21,WNW,296,2.3,2.3,68,0.00,CLR,,0.00,0.0,WeatherDisplay:10.37,2013-03-23 03:30:00,
2013-03-22 20:33:00,30.1,20.8,30.21,WNW,296,0.0,0.0,68,0.00,CLR,,0.00,0.0,WeatherDisplay:10.37,2013-03-23 03:33:00,
2013-03-22 20:34:00,30.1,20.8,30.21,WNW,296,0.0,0.0,68,0.00,CLR,,0.00,0.0,WeatherDisplay:10.37,2013-03-23 03:34:00,
2013-03-22 20:35:00,30.1,20.8,30.21,WNW,296,0.0,0.0,68,0.00,CLR,,0.00,0.0,WeatherDisplay:10.37,2013-03-23 03:35:00,
2013-03-22 20:38:00,29.9,20.6,30.21,WNW,296,1.2,1.2,68,0.00,CLR,,0.00,0.0,WeatherDisplay:10.37,2013-03-23 03:38:00,
2013-03-22 20:39:00,29.9,20.6,30.21,WNW,296,1.2,1.2,68,0.00,CLR,,0.00,0.0,WeatherDisplay:10.37,2013-03-23 03:39:00,
2013-03-22 20:40:00,29.9,20.6,30.21,WNW,296,1.2,0.0,68,0.00,CLR,,0.00,0.0,WeatherDisplay:10.37,2013-03-23 03:40:00,
2013-03-22 20:43:00,29.9,20.6,30.21,WNW,296,1.2,1.2,68,0.00,CLR,,0.00,0.0,WeatherDisplay:10.37,2013-03-23 03:43:00,
2013-03-22 20:44:00,29.8,20.5,30.21,WNW,296,1.2,1.2,68,0.00,CLR,,0.00,0.0,WeatherDisplay:10.37,2013-03-23 03:44:00,
2013-03-22 20:45:00,29.8,20.5,30.21,WNW,296,1.2,1.2,68,0.00,CLR,,0.00,0.0,WeatherDisplay:10.37,2013-03-23 03:45:00,
2013-03-22 20:49:00,29.7,20.4,30.21,WNW,296,1.2,0.0,68,0.00,CLR,,0.00,0.0,WeatherDisplay:10.37,2013-03-23 03:49:00,
2013-03-22 20:50:00,29.7,20.8,30.22,WNW,296,1.2,0.0,69,0.00,CLR,,0.00,0.0,WeatherDisplay:10.37,2013-03-23 03:50:00,
2013-03-22 20:54:00,29.5,20.6,30.21,WNW,296,0.0,0.0,69,0.00,CLR,,0.00,0.0,WeatherDisplay:10.37,2013-03-23 03:54:00,
2013-03-22 20:55:00,29.5,20.6,30.21,WNW,296,0.0,0.0,69,0.00,CLR,,0.00,0.0,WeatherDisplay:10.37,2013-03-23 03:55:00,
2013-03-22 20:59:00,29.4,20.5,30.21,WNW,296,0.0,0.0,69,0.00,CLR,,0.00,0.0,WeatherDisplay:10.37,2013-03-23 03:59:00,
2013-03-22 21:00:00,29.3,20.4,30.21,WNW,296,0.0,0.0,69,0.00,CLR,,0.00,0.0,WeatherDisplay:10.37,2013-03-23 04:00:00,
2013-03-22 21:05:00,29.2,20.6,30.20,WNW,296,0.0,0.0,70,0.00,,,0.00,0.0,WeatherDisplay:10.37,2013-03-23 04:05:00,
2013-03-22 21:06:00,29.1,20.5,30.20,WNW,296,0.0,0.0,70,0.00,,,0.00,0.0,WeatherDisplay:10.37,2013-03-23 04:06:00,
2013-03-22 21:10:00,29.0,20.8,30.20,WNW,296,0.0,0.0,71,0.00,,,0.00,0.0,WeatherDisplay:10.37,2013-03-23 04:10:00,
2013-03-22 21:12:00,29.0,20.8,30.21,WNW,296,1.2,0.0,71,0.00,,,0.00,0.0,WeatherDisplay:10.37,2013-03-23 04:12:00,
2013-03-22 21:15:00,28.9,20.7,30.21,WNW,296,1.2,0.0,71,0.00,,,0.00,0.0,WeatherDisplay:10.37,2013-03-23 04:15:00,
2013-03-22 21:16:00,28.9,20.7,30.21,WNW,296,0.0,0.0,71,0.00,,,0.00,0.0,WeatherDisplay:10.37,2013-03-23 04:16:00,
2013-03-22 21:18:00,28.9,20.7,30.21,WNW,296,1.2,1.2,71,0.00,,,0.00,0.0,WeatherDisplay:10.37,2013-03-23 04:18:00,
2013-03-22 21:20:00,28.9,20.7,30.21,WNW,296,1.2,1.2,71,0.00,,,0.00,0.0,WeatherDisplay:10.37,2013-03-23 04:20:00,
2013-03-22 21:21:00,28.8,20.9,30.21,WNW,296,1.2,0.0,72,0.00,,,0.00,0.0,WeatherDisplay:10.37,2013-03-23 04:21:00,
2013-03-22 21:24:00,28.7,20.8,30.21,WNW,296,1.2,0.0,72,0.00,,,0.00,0.0,WeatherDisplay:10.37,2013-03-23 04:24:00,
2013-03-22 21:25:00,28.7,20.8,30.22,WNW,296,0.0,0.0,72,0.00,,,0.00,0.0,WeatherDisplay:10.37,2013-03-23 04:25:00,
2013-03-22 21:26:00,28.7,20.8,30.22,WNW,296,0.0,0.0,72,0.00,,,0.00,0.0,WeatherDisplay:10.37,2013-03-23 04:26:00,
2013-03-22 21:29:00,28.7,20.8,30.22,WNW,296,0.0,0.0,72,0.00,,,0.00,0.0,WeatherDisplay:10.37,2013-03-23 04:29:00,
2013-03-22 21:30:00,28.7,20.8,30.22,WNW,296,0.0,0.0,72,0.00,,,0.00,0.0,WeatherDisplay:10.37,2013-03-23 04:30:00,
2013-03-22 21:32:00,28.7,20.8,30.22,WNW,296,1.2,1.2,72,0.00,,,0.00,0.0,WeatherDisplay:10.37,2013-03-23 04:32:00,
2013-03-22 21:34:00,28.7,20.8,30.22,WNW,296,1.2,1.2,72,0.00,,,0.00,0.0,WeatherDisplay:10.37,2013-03-23 04:34:00,
2013-03-22 21:35:00,28.7,20.8,30.22,WNW,296,1.2,1.2,72,0.00,,,0.00,0.0,WeatherDisplay:10.37,2013-03-23 04:35:00,
2013-03-22 21:37:00,28.8,20.9,30.22,NW,304,0.0,0.0,72,0.00,,,0.00,0.0,WeatherDisplay:10.37,2013-03-23 04:37:00,
2013-03-22 21:39:00,28.8,20.9,30.22,NW,305,1.2,1.2,72,0.00,,,0.00,0.0,WeatherDisplay:10.37,2013-03-23 04:39:00,
2013-03-22 21:40:00,28.7,20.8,30.22,NW,305,1.2,0.0,72,0.00,,,0.00,0.0,WeatherDisplay:10.37,2013-03-23 04:40:00,
2013-03-22 21:42:00,28.7,20.8,30.22,NW,305,1.2,1.2,72,0.00,,,0.00,0.0,WeatherDisplay:10.37,2013-03-23 04:42:00,
2013-03-22 21:45:00,28.7,21.1,30.22,NNW,328,2.3,2.3,73,0.00,,,0.00,0.0,WeatherDisplay:10.37,2013-03-23 04:45:00,
2013-03-22 21:47:00,28.7,21.1,30.22,NNW,331,1.2,1.2,73,0.00,,,0.00,0.0,WeatherDisplay:10.37,2013-03-23 04:47:00,
2013-03-22 21:48:00,28.7,21.1,30.22,NNW,331,1.2,0.0,73,0.00,,,0.00,0.0,WeatherDisplay:10.37,2013-03-23 04:48:00,
2013-03-22 21:50:00,28.7,21.1,30.22,NNW,331,0.0,0.0,73,0.00,,,0.00,0.0,WeatherDisplay:10.37,2013-03-23 04:50:00,
2013-03-22 21:53:00,28.7,21.1,30.23,NNW,331,0.0,0.0,73,0.00,,,0.00,0.0,WeatherDisplay:10.37,2013-03-23 04:53:00,
2013-03-22 21:55:00,28.6,21.0,30.23,NNW,331,0.0,0.0,73,0.00,,,0.00,0.0,WeatherDisplay:10.37,2013-03-23 04:55:00,
2013-03-22 21:58:00,28.6,21.0,30.23,NNW,331,1.2,0.0,73,0.00,,,0.00,0.0,WeatherDisplay:10.37,2013-03-23 04:58:00,
2013-03-22 22:00:00,28.6,21.0,30.23,NNW,331,0.0,0.0,73,0.00,,,0.00,0.0,WeatherDisplay:10.37,2013-03-23 05:00:00,
2013-03-22 22:03:00,28.5,20.9,30.23,NNW,331,0.0,0.0,73,0.00,CLR,,0.00,0.0,WeatherDisplay:10.37,2013-03-23 05:03:00,
2013-03-22 22:05:00,28.5,21.3,30.23,NNW,331,0.0,0.0,74,0.00,CLR,,0.00,0.0,WeatherDisplay:10.37,2013-03-23 05:05:00,
2013-03-22 22:06:00,28.5,21.3,30.23,NNW,331,0.0,0.0,74,0.00,CLR,,0.00,0.0,WeatherDisplay:10.37,2013-03-23 05:06:00,
2013-03-22 22:08:00,28.5,21.3,30.23,NNW,331,0.0,0.0,74,0.00,CLR,,0.00,0.0,WeatherDisplay:10.37,2013-03-23 05:08:00,
2013-03-22 22:09:00,28.5,21.3,30.23,NNW,331,0.0,0.0,74,0.00,CLR,,0.00,0.0,WeatherDisplay:10.37,2013-03-23 05:09:00,
2013-03-22 22:10:00,28.5,21.3,30.23,NNW,331,0.0,0.0,74,0.00,CLR,,0.00,0.0,WeatherDisplay:10.37,2013-03-23 05:10:00,
2013-03-22 22:11:00,28.5,21.3,30.23,NNW,331,0.0,0.0,74,0.00,CLR,,0.00,0.0,WeatherDisplay:10.37,2013-03-23 05:11:00,
2013-03-22 22:14:00,28.5,21.3,30.23,NNW,331,1.2,0.0,74,0.00,CLR,,0.00,0.0,WeatherDisplay:10.37,2013-03-23 05:14:00,
2013-03-22 22:16:00,28.5,21.3,30.23,NNW,331,0.0,0.0,74,0.00,CLR,,0.00,0.0,WeatherDisplay:10.37,2013-03-23 05:16:00,
2013-03-22 22:19:00,28.5,21.3,30.23,NNW,331,0.0,0.0,74,0.00,CLR,,0.00,0.0,WeatherDisplay:10.37,2013-03-23 05:19:00,
2013-03-22 22:20:00,28.4,21.2,30.23,NNW,331,0.0,0.0,74,0.00,CLR,,0.00,0.0,WeatherDisplay:10.37,2013-03-23 05:20:00,
2013-03-22 22:21:00,28.4,21.2,30.23,NNW,331,0.0,0.0,74,0.00,CLR,,0.00,0.0,WeatherDisplay:10.37,2013-03-23 05:21:00,
2013-03-22 22:22:00,28.4,21.2,30.23,NNW,331,0.0,0.0,74,0.00,CLR,,0.00,0.0,WeatherDisplay:10.37,2013-03-23 05:22:00,
2013-03-22 22:24:00,28.3,21.1,30.23,NNW,331,0.0,0.0,74,0.00,CLR,,0.00,0.0,WeatherDisplay:10.37,2013-03-23 05:24:00,
2013-03-22 22:25:00,28.3,21.1,30.23,NNW,331,0.0,0.0,74,0.00,CLR,,0.00,0.0,WeatherDisplay:10.37,2013-03-23 05:25:00,
2013-03-22 22:26:00,28.2,21.0,30.23,NNW,331,0.0,0.0,74,0.00,CLR,,0.00,0.0,WeatherDisplay:10.37,2013-03-23 05:26:00,
2013-03-22 22:27:00,28.2,21.0,30.23,NNW,331,0.0,0.0,74,0.00,CLR,,0.00,0.0,WeatherDisplay:10.37,2013-03-23 05:27:00,
2013-03-22 22:30:00,28.1,20.9,30.23,NNW,331,0.0,0.0,74,0.00,CLR,,0.00,0.0,WeatherDisplay:10.37,2013-03-23 05:30:00,
2013-03-22 22:32:00,28.1,20.9,30.23,NNW,331,0.0,0.0,74,0.00,CLR,,0.00,0.0,WeatherDisplay:10.37,2013-03-23 05:32:00,
2013-03-22 22:33:00,28.1,20.9,30.23,NNW,331,0.0,0.0,74,0.00,CLR,,0.00,0.0,WeatherDisplay:10.37,2013-03-23 05:33:00,
2013-03-22 22:35:00,27.9,20.7,30.23,NNW,331,0.0,0.0,74,0.00,CLR,,0.00,0.0,WeatherDisplay:10.37,2013-03-23 05:35:00,
2013-03-22 22:37:00,27.9,21.0,30.23,NNW,331,0.0,0.0,75,0.00,CLR,,0.00,0.0,WeatherDisplay:10.37,2013-03-23 05:37:00,
2013-03-22 22:38:00,27.9,21.0,30.23,NNW,331,0.0,0.0,75,0.00,CLR,,0.00,0.0,WeatherDisplay:10.37,2013-03-23 05:38:00,
2013-03-22 22:40:00,27.8,20.9,30.23,NNW,331,0.0,0.0,75,0.00,CLR,,0.00,0.0,WeatherDisplay:10.37,2013-03-23 05:40:00,
2013-03-22 22:42:00,27.8,20.9,30.23,NNW,331,0.0,0.0,75,0.00,CLR,,0.00,0.0,WeatherDisplay:10.37,2013-03-23 05:42:00,
2013-03-22 22:43:00,27.7,20.8,30.23,NNW,331,0.0,0.0,75,0.00,CLR,,0.00,0.0,WeatherDisplay:10.37,2013-03-23 05:43:00,
2013-03-22 22:45:00,27.6,21.0,30.23,NNW,331,0.0,0.0,76,0.00,CLR,,0.00,0.0,WeatherDisplay:10.37,2013-03-23 05:45:00,
2013-03-22 22:46:00,27.5,20.9,30.23,NNW,331,0.0,0.0,76,0.00,CLR,,0.00,0.0,WeatherDisplay:10.37,2013-03-23 05:46:00,
2013-03-22 22:47:00,27.5,20.9,30.23,NNW,331,0.0,0.0,76,0.00,CLR,,0.00,0.0,WeatherDisplay:10.37,2013-03-23 05:47:00,
2013-03-22 22:48:00,27.5,20.9,30.23,NNW,331,0.0,0.0,76,0.00,CLR,,0.00,0.0,WeatherDisplay:10.37,2013-03-23 05:48:00,
2013-03-22 22:50:00,27.4,20.8,30.23,NNW,331,0.0,0.0,76,0.00,CLR,,0.00,0.0,WeatherDisplay:10.37,2013-03-23 05:50:00,
2013-03-22 22:51:00,27.4,20.8,30.23,NNW,331,0.0,0.0,76,0.00,CLR,,0.00,0.0,WeatherDisplay:10.37,2013-03-23 05:51:00,
2013-03-22 22:52:00,27.4,21.1,30.23,NNW,331,0.0,0.0,77,0.00,CLR,,0.00,0.0,WeatherDisplay:10.37,2013-03-23 05:52:00,
2013-03-22 22:53:00,27.3,21.0,30.23,NNW,331,0.0,0.0,77,0.00,CLR,,0.00,0.0,WeatherDisplay:10.37,2013-03-23 05:53:00,
2013-03-22 22:55:00,27.3,21.0,30.23,NNW,331,0.0,0.0,77,0.00,CLR,,0.00,0.0,WeatherDisplay:10.37,2013-03-23 05:55:00,
2013-03-22 22:56:00,27.3,21.0,30.23,NNW,331,0.0,0.0,77,0.00,CLR,,0.00,0.0,WeatherDisplay:10.37,2013-03-23 05:56:00,
2013-03-22 22:57:00,27.3,21.0,30.23,NNW,331,0.0,0.0,77,0.00,CLR,,0.00,0.0,WeatherDisplay:10.37,2013-03-23 05:57:00,
2013-03-22 22:58:00,27.2,20.9,30.23,NNW,331,0.0,0.0,77,0.00,CLR,,0.00,0.0,WeatherDisplay:10.37,2013-03-23 05:58:00,
2013-03-22 23:01:00,27.3,21.0,30.23,NNW,331,0.0,0.0,77,0.00,CLR,,0.00,0.0,WeatherDisplay:10.37,2013-03-23 06:01:00,
2013-03-22 23:02:00,27.2,20.9,30.23,NNW,331,0.0,0.0,77,0.00,,,0.00,0.0,WeatherDisplay:10.37,2013-03-23 06:02:00,
2013-03-22 23:04:00,27.3,21.0,30.24,NNW,331,0.0,0.0,77,0.00,,,0.00,0.0,WeatherDisplay:10.37,2013-03-23 06:04:00,
2013-03-22 23:07:00,27.2,20.9,30.24,NNW,331,0.0,0.0,77,0.00,,,0.00,0.0,WeatherDisplay:10.37,2013-03-23 06:07:00,
2013-03-22 23:08:00,27.2,20.9,30.24,NNW,331,0.0,0.0,77,0.00,,,0.00,0.0,WeatherDisplay:10.37,2013-03-23 06:08:00,
2013-03-22 23:09:00,27.2,20.9,30.24,NNW,331,0.0,0.0,77,0.00,,,0.00,0.0,WeatherDisplay:10.37,2013-03-23 06:09:00,
2013-03-22 23:12:00,27.2,20.6,30.23,NNW,331,0.0,0.0,76,0.00,,,0.00,0.0,WeatherDisplay:10.37,2013-03-23 06:12:00,
2013-03-22 23:13:00,27.1,20.5,30.24,NNW,331,0.0,0.0,76,0.00,,,0.00,0.0,WeatherDisplay:10.37,2013-03-23 06:13:00,
2013-03-22 23:14:00,27.1,20.5,30.23,NNW,331,0.0,0.0,76,0.00,,,0.00,0.0,WeatherDisplay:10.37,2013-03-23 06:14:00,
2013-03-22 23:17:00,27.0,20.7,30.24,NNW,331,0.0,0.0,77,0.00,,,0.00,0.0,WeatherDisplay:10.37,2013-03-23 06:17:00,
2013-03-22 23:18:00,27.0,20.7,30.24,NNW,331,1.2,0.0,77,0.00,,,0.00,0.0,WeatherDisplay:10.37,2013-03-23 06:18:00,
2013-03-22 23:19:00,27.0,20.7,30.23,NNW,331,0.0,0.1,77,0.00,,,0.00,0.0,WeatherDisplay:10.37,2013-03-23 06:19:00,
2013-03-22 23:22:00,27.1,20.8,30.24,NNW,331,0.0,0.0,77,0.00,,,0.00,0.0,WeatherDisplay:10.37,2013-03-23 06:22:00,
2013-03-22 23:23:00,27.1,20.8,30.24,NNW,331,0.0,0.0,77,0.00,,,0.00,0.0,WeatherDisplay:10.37,2013-03-23 06:23:00,
2013-03-22 23:24:00,27.1,20.8,30.24,NNW,331,0.0,0.0,77,0.00,,,0.00,0.0,WeatherDisplay:10.37,2013-03-23 06:24:00,
2013-03-22 23:25:00,27.1,20.8,30.24,NNW,331,0.0,0.0,77,0.00,,,0.00,0.0,WeatherDisplay:10.37,2013-03-23 06:25:00,
2013-03-22 23:28:00,27.1,20.8,30.24,NNW,331,0.0,0.0,77,0.00,,,0.00,0.0,WeatherDisplay:10.37,2013-03-23 06:28:00,
2013-03-22 23:29:00,27.2,20.9,30.24,NNW,331,0.0,0.0,77,0.00,,,0.00,0.0,WeatherDisplay:10.37,2013-03-23 06:29:00,
2013-03-22 23:30:00,27.2,20.9,30.24,NNW,331,1.2,1.2,77,0.00,,,0.00,0.0,WeatherDisplay:10.37,2013-03-23 06:30:00,
2013-03-22 23:33:00,27.2,20.9,30.24,NNW,331,0.0,0.0,77,0.00,,,0.00,0.0,WeatherDisplay:10.37,2013-03-23 06:33:00,
2013-03-22 23:34:00,27.2,20.9,30.24,NNW,331,0.0,0.0,77,0.00,,,0.00,0.0,WeatherDisplay:10.37,2013-03-23 06:34:00,
2013-03-22 23:35:00,27.2,20.9,30.24,NNW,331,0.0,0.0,77,0.00,,,0.00,0.0,WeatherDisplay:10.37,2013-03-23 06:35:00,
2013-03-22 23:38:00,27.3,21.0,30.24,NNW,331,0.0,0.0,77,0.00,,,0.00,0.0,WeatherDisplay:10.37,2013-03-23 06:38:00,
2013-03-22 23:39:00,27.3,21.0,30.24,NNW,331,0.0,0.0,77,0.00,,,0.00,0.0,WeatherDisplay:10.37,2013-03-23 06:39:00,
2013-03-22 23:40:00,27.3,21.0,30.24,NNW,331,0.0,0.0,77,0.00,,,0.00,0.0,WeatherDisplay:10.37,2013-03-23 06:40:00,
2013-03-22 23:43:00,27.3,21.0,30.24,NNW,331,0.0,0.0,77,0.00,,,0.00,0.0,WeatherDisplay:10.37,2013-03-23 06:43:00,
2013-03-22 23:45:00,27.3,21.0,30.24,NNW,331,0.0,0.0,77,0.00,,,0.00,0.0,WeatherDisplay:10.37,2013-03-23 06:45:00,
2013-03-22 23:48:00,27.3,21.0,30.24,NNW,331,0.0,0.0,77,0.00,,,0.00,0.0,WeatherDisplay:10.37,2013-03-23 06:48:00,
2013-03-22 23:50:00,27.3,21.0,30.24,NNW,331,0.0,0.0,77,0.00,,,0.00,0.0,WeatherDisplay:10.37,2013-03-23 06:50:00,
2013-03-22 23:54:00,27.3,21.0,30.24,NNW,331,0.0,0.0,77,0.00,,,0.00,0.0,WeatherDisplay:10.37,2013-03-23 06:54:00,
2013-03-22 23:55:00,27.2,20.6,30.24,NNW,331,0.0,0.0,76,0.00,,,0.00,0.0,WeatherDisplay:10.37,2013-03-23 06:55:00,
2013-03-22 23:59:00,27.2,20.6,30.25,NNW,331,0.0,0.0,76,0.00,,,0.00,0.0,WeatherDisplay:10.37,2013-03-23 06:59:00,